<?xml version="1.0" encoding="UTF-8" standalone="no" ?>
<gpx xmlns="http://www.topografix.com/GPX/1/1" xmlns:xsi="http://www.w3.org/2001/XMLSchema-instance" xsi:schemaLocation="http://www.topografix.com/GPX/1/1 http://www.topografix.com/GPX/1/1/gpx.xsd" version="1.1" creator="VisuGPX - https://www.visugpx.com">
  <metadata>
    <name>Yvonand, Tour St.-Martin</name>
  </metadata>
  <trk>
    <name><![CDATA[Yvonand, Tour St.-Martin_1]]></name>
    <extensions>
      <line xmlns="http://www.topografix.com/GPX/gpx_style/0/2">
        <color>0000FF</color>
        <width>4</width>
      </line>
    </extensions>
    <trkseg>
      <trkpt lat="46.80375" lon="6.73844">
        <ele>432.05</ele>
        <time>2021-04-20T08:40:00.000Z</time>
      </trkpt>
      <trkpt lat="46.80375" lon="6.73837">
        <ele>432.01</ele>
        <time>2021-04-20T08:40:01.795Z</time>
      </trkpt>
      <trkpt lat="46.80376" lon="6.73824">
        <ele>431.47</ele>
        <time>2021-04-20T08:40:03.761Z</time>
      </trkpt>
      <trkpt lat="46.80362" lon="6.73821">
        <ele>431.73</ele>
        <time>2021-04-20T08:40:21.461Z</time>
      </trkpt>
      <trkpt lat="46.80358" lon="6.7382">
        <ele>431.72</ele>
        <time>2021-04-20T08:40:25.529Z</time>
      </trkpt>
      <trkpt lat="46.80357" lon="6.7382">
        <ele>431.72</ele>
        <time>2021-04-20T08:40:26.569Z</time>
      </trkpt>
      <trkpt lat="46.80352" lon="6.73819">
        <ele>431.72</ele>
        <time>2021-04-20T08:40:31.820Z</time>
      </trkpt>
      <trkpt lat="46.80343" lon="6.73818">
        <ele>432.03</ele>
        <time>2021-04-20T08:40:45.519Z</time>
      </trkpt>
      <trkpt lat="46.80335" lon="6.73817">
        <ele>432.15</ele>
        <time>2021-04-20T08:40:55.197Z</time>
      </trkpt>
      <trkpt lat="46.80326" lon="6.73818">
        <ele>432.86</ele>
        <time>2021-04-20T08:41:15.413Z</time>
      </trkpt>
      <trkpt lat="46.80326" lon="6.73827">
        <ele>432.56</ele>
        <time>2021-04-20T08:41:16.903Z</time>
      </trkpt>
      <trkpt lat="46.80327" lon="6.73835">
        <ele>432.62</ele>
        <time>2021-04-20T08:41:23.329Z</time>
      </trkpt>
      <trkpt lat="46.80327" lon="6.73845">
        <ele>432.61</ele>
        <time>2021-04-20T08:41:30.294Z</time>
      </trkpt>
      <trkpt lat="46.80326" lon="6.73855">
        <ele>432.82</ele>
        <time>2021-04-20T08:41:40.263Z</time>
      </trkpt>
      <trkpt lat="46.80326" lon="6.73861">
        <ele>432.67</ele>
        <time>2021-04-20T08:41:41.375Z</time>
      </trkpt>
      <trkpt lat="46.80326" lon="6.73861">
        <ele>432.67</ele>
        <time>2021-04-20T08:41:41.375Z</time>
      </trkpt>
      <trkpt lat="46.80323" lon="6.73936">
        <ele>432.52</ele>
        <time>2021-04-20T08:42:32.586Z</time>
      </trkpt>
      <trkpt lat="46.80322" lon="6.7396">
        <ele>432.5</ele>
        <time>2021-04-20T08:42:49.396Z</time>
      </trkpt>
      <trkpt lat="46.80321" lon="6.73967">
        <ele>432.34</ele>
        <time>2021-04-20T08:42:50.774Z</time>
      </trkpt>
      <trkpt lat="46.8032" lon="6.73975">
        <ele>432.41</ele>
        <time>2021-04-20T08:42:57.319Z</time>
      </trkpt>
      <trkpt lat="46.80319" lon="6.73986">
        <ele>432.61</ele>
        <time>2021-04-20T08:43:07.732Z</time>
      </trkpt>
      <trkpt lat="46.80318" lon="6.73997">
        <ele>432.63</ele>
        <time>2021-04-20T08:43:15.830Z</time>
      </trkpt>
      <trkpt lat="46.80316" lon="6.74004">
        <ele>432.69</ele>
        <time>2021-04-20T08:43:21.871Z</time>
      </trkpt>
      <trkpt lat="46.80314" lon="6.74009">
        <ele>432.67</ele>
        <time>2021-04-20T08:43:25.699Z</time>
      </trkpt>
      <trkpt lat="46.80313" lon="6.74015">
        <ele>432.64</ele>
        <time>2021-04-20T08:43:29.665Z</time>
      </trkpt>
      <trkpt lat="46.80311" lon="6.74021">
        <ele>432.68</ele>
        <time>2021-04-20T08:43:34.832Z</time>
      </trkpt>
      <trkpt lat="46.80309" lon="6.74027">
        <ele>432.52</ele>
        <time>2021-04-20T08:43:36.088Z</time>
      </trkpt>
      <trkpt lat="46.803" lon="6.74057">
        <ele>432.73</ele>
        <time>2021-04-20T08:44:01.602Z</time>
      </trkpt>
      <trkpt lat="46.80294" lon="6.74077">
        <ele>432.86</ele>
        <time>2021-04-20T08:44:18.498Z</time>
      </trkpt>
      <trkpt lat="46.80292" lon="6.74081">
        <ele>433.32</ele>
        <time>2021-04-20T08:44:32.104Z</time>
      </trkpt>
      <trkpt lat="46.80289" lon="6.74087">
        <ele>433.27</ele>
        <time>2021-04-20T08:44:33.971Z</time>
      </trkpt>
      <trkpt lat="46.80287" lon="6.74098">
        <ele>433.11</ele>
        <time>2021-04-20T08:44:36.475Z</time>
      </trkpt>
      <trkpt lat="46.80282" lon="6.74116">
        <ele>432.98</ele>
        <time>2021-04-20T08:44:41.361Z</time>
      </trkpt>
      <trkpt lat="46.80275" lon="6.7414">
        <ele>433.06</ele>
        <time>2021-04-20T08:45:00.734Z</time>
      </trkpt>
      <trkpt lat="46.80275" lon="6.74139">
        <ele>433.02</ele>
        <time>2021-04-20T08:45:00.887Z</time>
      </trkpt>
      <trkpt lat="46.80275" lon="6.74139">
        <ele>433.02</ele>
        <time>2021-04-20T08:45:00.887Z</time>
      </trkpt>
      <trkpt lat="46.80275" lon="6.7414">
        <ele>433.06</ele>
        <time>2021-04-20T08:45:02.205Z</time>
      </trkpt>
      <trkpt lat="46.80268" lon="6.74165">
        <ele>433.09</ele>
        <time>2021-04-20T08:45:21.730Z</time>
      </trkpt>
      <trkpt lat="46.80261" lon="6.74185">
        <ele>433.02</ele>
        <time>2021-04-20T08:45:36.683Z</time>
      </trkpt>
      <trkpt lat="46.80238" lon="6.74266">
        <ele>432.85</ele>
        <time>2021-04-20T08:46:36.534Z</time>
      </trkpt>
      <trkpt lat="46.80231" lon="6.74288">
        <ele>432.77</ele>
        <time>2021-04-20T08:46:52.623Z</time>
      </trkpt>
      <trkpt lat="46.80223" lon="6.74315">
        <ele>432.62</ele>
        <time>2021-04-20T08:47:00.260Z</time>
      </trkpt>
      <trkpt lat="46.80217" lon="6.74335">
        <ele>432.24</ele>
        <time>2021-04-20T08:47:04.805Z</time>
      </trkpt>
      <trkpt lat="46.80204" lon="6.74376">
        <ele>432.25</ele>
        <time>2021-04-20T08:47:37.078Z</time>
      </trkpt>
      <trkpt lat="46.80163" lon="6.7451">
        <ele>432.68</ele>
        <time>2021-04-20T08:49:25.868Z</time>
      </trkpt>
      <trkpt lat="46.80146" lon="6.74498">
        <ele>433.14</ele>
        <time>2021-04-20T08:49:51.152Z</time>
      </trkpt>
      <trkpt lat="46.80146" lon="6.74497">
        <ele>433.14</ele>
        <time>2021-04-20T08:49:51.864Z</time>
      </trkpt>
      <trkpt lat="46.80135" lon="6.7449">
        <ele>433.61</ele>
        <time>2021-04-20T08:50:11.332Z</time>
      </trkpt>
      <trkpt lat="46.80121" lon="6.74481">
        <ele>433.63</ele>
        <time>2021-04-20T08:50:27.437Z</time>
      </trkpt>
      <trkpt lat="46.80099" lon="6.74603">
        <ele>433.83</ele>
        <time>2021-04-20T08:51:59.229Z</time>
      </trkpt>
      <trkpt lat="46.80096" lon="6.74622">
        <ele>433.95</ele>
        <time>2021-04-20T08:52:14.362Z</time>
      </trkpt>
      <trkpt lat="46.80091" lon="6.74651">
        <ele>433.99</ele>
        <time>2021-04-20T08:52:36.047Z</time>
      </trkpt>
      <trkpt lat="46.8009" lon="6.74655">
        <ele>434.02</ele>
        <time>2021-04-20T08:52:39.395Z</time>
      </trkpt>
      <trkpt lat="46.8009" lon="6.74657">
        <ele>433.94</ele>
        <time>2021-04-20T08:52:39.700Z</time>
      </trkpt>
      <trkpt lat="46.80088" lon="6.74658">
        <ele>434.08</ele>
        <time>2021-04-20T08:52:44.003Z</time>
      </trkpt>
      <trkpt lat="46.80085" lon="6.74657">
        <ele>434.01</ele>
        <time>2021-04-20T08:52:44.967Z</time>
      </trkpt>
      <trkpt lat="46.80082" lon="6.74657">
        <ele>434.08</ele>
        <time>2021-04-20T08:52:48.937Z</time>
      </trkpt>
      <trkpt lat="46.8008" lon="6.74657">
        <ele>433.91</ele>
        <time>2021-04-20T08:52:49.393Z</time>
      </trkpt>
      <trkpt lat="46.8008" lon="6.74657">
        <ele>433.95</ele>
        <time>2021-04-20T08:52:49.393Z</time>
      </trkpt>
      <trkpt lat="46.80078" lon="6.74657">
        <ele>434.04</ele>
        <time>2021-04-20T08:52:52.916Z</time>
      </trkpt>
      <trkpt lat="46.80078" lon="6.74658">
        <ele>434.1</ele>
        <time>2021-04-20T08:52:54.569Z</time>
      </trkpt>
      <trkpt lat="46.80076" lon="6.74659">
        <ele>434.04</ele>
        <time>2021-04-20T08:52:55.191Z</time>
      </trkpt>
      <trkpt lat="46.80074" lon="6.7466">
        <ele>434.12</ele>
        <time>2021-04-20T08:52:58.557Z</time>
      </trkpt>
      <trkpt lat="46.80071" lon="6.7466">
        <ele>434.25</ele>
        <time>2021-04-20T08:53:03.732Z</time>
      </trkpt>
      <trkpt lat="46.8007" lon="6.74658">
        <ele>434.26</ele>
        <time>2021-04-20T08:53:05.597Z</time>
      </trkpt>
      <trkpt lat="46.80068" lon="6.74655">
        <ele>434.22</ele>
        <time>2021-04-20T08:53:06.595Z</time>
      </trkpt>
      <trkpt lat="46.80065" lon="6.74652">
        <ele>434.18</ele>
        <time>2021-04-20T08:53:07.909Z</time>
      </trkpt>
      <trkpt lat="46.80059" lon="6.74646">
        <ele>434.17</ele>
        <time>2021-04-20T08:53:15.317Z</time>
      </trkpt>
      <trkpt lat="46.8005" lon="6.74639">
        <ele>434.12</ele>
        <time>2021-04-20T08:53:25.183Z</time>
      </trkpt>
      <trkpt lat="46.8005" lon="6.74638">
        <ele>434.12</ele>
        <time>2021-04-20T08:53:25.896Z</time>
      </trkpt>
      <trkpt lat="46.80042" lon="6.74632">
        <ele>434.07</ele>
        <time>2021-04-20T08:53:34.517Z</time>
      </trkpt>
      <trkpt lat="46.80037" lon="6.74628">
        <ele>434.17</ele>
        <time>2021-04-20T08:53:41.582Z</time>
      </trkpt>
      <trkpt lat="46.80027" lon="6.74619">
        <ele>434.17</ele>
        <time>2021-04-20T08:53:53.802Z</time>
      </trkpt>
      <trkpt lat="46.80024" lon="6.74629">
        <ele>433.91</ele>
        <time>2021-04-20T08:53:55.862Z</time>
      </trkpt>
      <trkpt lat="46.80021" lon="6.74642">
        <ele>433.7</ele>
        <time>2021-04-20T08:53:58.817Z</time>
      </trkpt>
      <trkpt lat="46.80007" lon="6.74697">
        <ele>433.07</ele>
        <time>2021-04-20T08:54:12.500Z</time>
      </trkpt>
      <trkpt lat="46.80004" lon="6.74709">
        <ele>433.03</ele>
        <time>2021-04-20T08:54:21.003Z</time>
      </trkpt>
      <trkpt lat="46.79994" lon="6.74748">
        <ele>432.91</ele>
        <time>2021-04-20T08:54:48.864Z</time>
      </trkpt>
      <trkpt lat="46.79986" lon="6.74782">
        <ele>432.79</ele>
        <time>2021-04-20T08:55:12.688Z</time>
      </trkpt>
      <trkpt lat="46.79969" lon="6.7485">
        <ele>432.74</ele>
        <time>2021-04-20T08:56:03.459Z</time>
      </trkpt>
      <trkpt lat="46.79949" lon="6.74926">
        <ele>432.7</ele>
        <time>2021-04-20T08:57:00.814Z</time>
      </trkpt>
      <trkpt lat="46.79932" lon="6.74996">
        <ele>432.66</ele>
        <time>2021-04-20T08:57:53.079Z</time>
      </trkpt>
      <trkpt lat="46.79919" lon="6.74986">
        <ele>432.85</ele>
        <time>2021-04-20T08:58:10.418Z</time>
      </trkpt>
      <trkpt lat="46.79906" lon="6.74976">
        <ele>432.87</ele>
        <time>2021-04-20T08:58:25.896Z</time>
      </trkpt>
      <trkpt lat="46.79906" lon="6.74975">
        <ele>432.87</ele>
        <time>2021-04-20T08:58:26.608Z</time>
      </trkpt>
      <trkpt lat="46.79886" lon="6.7496">
        <ele>432.88</ele>
        <time>2021-04-20T08:58:50.092Z</time>
      </trkpt>
      <trkpt lat="46.79855" lon="6.74936">
        <ele>433.86</ele>
        <time>2021-04-20T08:59:39.141Z</time>
      </trkpt>
      <trkpt lat="46.79851" lon="6.74934">
        <ele>434.03</ele>
        <time>2021-04-20T08:59:46.104Z</time>
      </trkpt>
      <trkpt lat="46.79833" lon="6.7492">
        <ele>434.34</ele>
        <time>2021-04-20T09:00:10.751Z</time>
      </trkpt>
      <trkpt lat="46.79823" lon="6.74913">
        <ele>434.6</ele>
        <time>2021-04-20T09:00:25.442Z</time>
      </trkpt>
      <trkpt lat="46.79807" lon="6.74977">
        <ele>434.74</ele>
        <time>2021-04-20T09:01:15.338Z</time>
      </trkpt>
      <trkpt lat="46.79796" lon="6.75026">
        <ele>434.49</ele>
        <time>2021-04-20T09:01:48.468Z</time>
      </trkpt>
      <trkpt lat="46.79787" lon="6.75015">
        <ele>434.91</ele>
        <time>2021-04-20T09:02:06.631Z</time>
      </trkpt>
      <trkpt lat="46.79785" lon="6.75012">
        <ele>435.04</ele>
        <time>2021-04-20T09:02:11.691Z</time>
      </trkpt>
      <trkpt lat="46.79778" lon="6.75">
        <ele>435.47</ele>
        <time>2021-04-20T09:02:29.372Z</time>
      </trkpt>
      <trkpt lat="46.79769" lon="6.74988">
        <ele>435.46</ele>
        <time>2021-04-20T09:02:41.891Z</time>
      </trkpt>
      <trkpt lat="46.79752" lon="6.74962">
        <ele>435.52</ele>
        <time>2021-04-20T09:03:08.082Z</time>
      </trkpt>
      <trkpt lat="46.79752" lon="6.74961">
        <ele>435.52</ele>
        <time>2021-04-20T09:03:08.794Z</time>
      </trkpt>
      <trkpt lat="46.79741" lon="6.74946">
        <ele>435.58</ele>
        <time>2021-04-20T09:03:25.042Z</time>
      </trkpt>
      <trkpt lat="46.79708" lon="6.74898">
        <ele>436.16</ele>
        <time>2021-04-20T09:04:19.729Z</time>
      </trkpt>
      <trkpt lat="46.79668" lon="6.74956">
        <ele>436.43</ele>
        <time>2021-04-20T09:05:21.054Z</time>
      </trkpt>
      <trkpt lat="46.79617" lon="6.75032">
        <ele>437.12</ele>
        <time>2021-04-20T09:06:44.049Z</time>
      </trkpt>
      <trkpt lat="46.79617" lon="6.75032">
        <ele>437.12</ele>
        <time>2021-04-20T09:06:44.049Z</time>
      </trkpt>
      <trkpt lat="46.79607" lon="6.75046">
        <ele>437.81</ele>
        <time>2021-04-20T09:07:09.215Z</time>
      </trkpt>
      <trkpt lat="46.7959" lon="6.75072">
        <ele>440.01</ele>
        <time>2021-04-20T09:08:09.560Z</time>
      </trkpt>
      <trkpt lat="46.79525" lon="6.75166">
        <ele>446.7</ele>
        <time>2021-04-20T09:11:25.682Z</time>
      </trkpt>
      <trkpt lat="46.79517" lon="6.75155">
        <ele>446.71</ele>
        <time>2021-04-20T09:11:37.208Z</time>
      </trkpt>
      <trkpt lat="46.79508" lon="6.75142">
        <ele>446.43</ele>
        <time>2021-04-20T09:11:41.203Z</time>
      </trkpt>
      <trkpt lat="46.79498" lon="6.75125">
        <ele>446.11</ele>
        <time>2021-04-20T09:11:46.116Z</time>
      </trkpt>
      <trkpt lat="46.79498" lon="6.75124">
        <ele>446.11</ele>
        <time>2021-04-20T09:11:46.828Z</time>
      </trkpt>
      <trkpt lat="46.79486" lon="6.75104">
        <ele>445.78</ele>
        <time>2021-04-20T09:11:52.849Z</time>
      </trkpt>
      <trkpt lat="46.79481" lon="6.75095">
        <ele>445.51</ele>
        <time>2021-04-20T09:11:55.052Z</time>
      </trkpt>
      <trkpt lat="46.79471" lon="6.75077">
        <ele>445.47</ele>
        <time>2021-04-20T09:12:10.949Z</time>
      </trkpt>
      <trkpt lat="46.79463" lon="6.75062">
        <ele>445.2</ele>
        <time>2021-04-20T09:12:15.122Z</time>
      </trkpt>
      <trkpt lat="46.79459" lon="6.75055">
        <ele>445.32</ele>
        <time>2021-04-20T09:12:23.004Z</time>
      </trkpt>
      <trkpt lat="46.79455" lon="6.75052">
        <ele>445.44</ele>
        <time>2021-04-20T09:12:29.196Z</time>
      </trkpt>
      <trkpt lat="46.79452" lon="6.7505">
        <ele>445.41</ele>
        <time>2021-04-20T09:12:30.418Z</time>
      </trkpt>
      <trkpt lat="46.79449" lon="6.75049">
        <ele>445.53</ele>
        <time>2021-04-20T09:12:35.399Z</time>
      </trkpt>
      <trkpt lat="46.79445" lon="6.75049">
        <ele>445.62</ele>
        <time>2021-04-20T09:12:40.640Z</time>
      </trkpt>
      <trkpt lat="46.79444" lon="6.75049">
        <ele>445.63</ele>
        <time>2021-04-20T09:12:41.785Z</time>
      </trkpt>
      <trkpt lat="46.79439" lon="6.75049">
        <ele>445.9</ele>
        <time>2021-04-20T09:12:51.126Z</time>
      </trkpt>
      <trkpt lat="46.79439" lon="6.75056">
        <ele>446.13</ele>
        <time>2021-04-20T09:12:59.730Z</time>
      </trkpt>
      <trkpt lat="46.7944" lon="6.75063">
        <ele>446.49</ele>
        <time>2021-04-20T09:13:10.259Z</time>
      </trkpt>
      <trkpt lat="46.79441" lon="6.75078">
        <ele>447.23</ele>
        <time>2021-04-20T09:13:32.142Z</time>
      </trkpt>
      <trkpt lat="46.7944" lon="6.75078">
        <ele>447.29</ele>
        <time>2021-04-20T09:13:34.089Z</time>
      </trkpt>
      <trkpt lat="46.79439" lon="6.75079">
        <ele>447.35</ele>
        <time>2021-04-20T09:13:36.287Z</time>
      </trkpt>
      <trkpt lat="46.79438" lon="6.75081">
        <ele>447.49</ele>
        <time>2021-04-20T09:13:40.208Z</time>
      </trkpt>
      <trkpt lat="46.79436" lon="6.75085">
        <ele>447.8</ele>
        <time>2021-04-20T09:13:48.674Z</time>
      </trkpt>
      <trkpt lat="46.79433" lon="6.75092">
        <ele>448.4</ele>
        <time>2021-04-20T09:14:04.940Z</time>
      </trkpt>
      <trkpt lat="46.79431" lon="6.75097">
        <ele>448.81</ele>
        <time>2021-04-20T09:14:16.035Z</time>
      </trkpt>
      <trkpt lat="46.79429" lon="6.75103">
        <ele>449.32</ele>
        <time>2021-04-20T09:14:29.975Z</time>
      </trkpt>
      <trkpt lat="46.79425" lon="6.75121">
        <ele>450.94</ele>
        <time>2021-04-20T09:15:16.337Z</time>
      </trkpt>
      <trkpt lat="46.79422" lon="6.75136">
        <ele>452.22</ele>
        <time>2021-04-20T09:15:52.132Z</time>
      </trkpt>
      <trkpt lat="46.7942" lon="6.75142">
        <ele>453</ele>
        <time>2021-04-20T09:16:10.465Z</time>
      </trkpt>
      <trkpt lat="46.79418" lon="6.75148">
        <ele>453.66</ele>
        <time>2021-04-20T09:16:28.798Z</time>
      </trkpt>
      <trkpt lat="46.79417" lon="6.75149">
        <ele>454.05</ele>
        <time>2021-04-20T09:16:33.661Z</time>
      </trkpt>
      <trkpt lat="46.79417" lon="6.75149">
        <ele>454.05</ele>
        <time>2021-04-20T09:16:33.661Z</time>
      </trkpt>
      <trkpt lat="46.79414" lon="6.75155">
        <ele>454.45</ele>
        <time>2021-04-20T09:16:45.051Z</time>
      </trkpt>
      <trkpt lat="46.79409" lon="6.75161">
        <ele>455.57</ele>
        <time>2021-04-20T09:17:11.018Z</time>
      </trkpt>
      <trkpt lat="46.79407" lon="6.75164">
        <ele>456.08</ele>
        <time>2021-04-20T09:17:22.521Z</time>
      </trkpt>
      <trkpt lat="46.79404" lon="6.75167">
        <ele>456.78</ele>
        <time>2021-04-20T09:17:37.110Z</time>
      </trkpt>
      <trkpt lat="46.79398" lon="6.7517">
        <ele>457.82</ele>
        <time>2021-04-20T09:18:02.558Z</time>
      </trkpt>
      <trkpt lat="46.79393" lon="6.75172">
        <ele>458.72</ele>
        <time>2021-04-20T09:18:23.360Z</time>
      </trkpt>
      <trkpt lat="46.79386" lon="6.75173">
        <ele>460.07</ele>
        <time>2021-04-20T09:18:51.583Z</time>
      </trkpt>
      <trkpt lat="46.79375" lon="6.75175">
        <ele>461.86</ele>
        <time>2021-04-20T09:19:36.064Z</time>
      </trkpt>
      <trkpt lat="46.79358" lon="6.75177">
        <ele>464.83</ele>
        <time>2021-04-20T09:20:44.500Z</time>
      </trkpt>
      <trkpt lat="46.79353" lon="6.75179">
        <ele>465.57</ele>
        <time>2021-04-20T09:21:05.303Z</time>
      </trkpt>
      <trkpt lat="46.79346" lon="6.75184">
        <ele>466.78</ele>
        <time>2021-04-20T09:21:36.570Z</time>
      </trkpt>
      <trkpt lat="46.79337" lon="6.75192">
        <ele>468.29</ele>
        <time>2021-04-20T09:22:18.847Z</time>
      </trkpt>
      <trkpt lat="46.79329" lon="6.75201">
        <ele>469.57</ele>
        <time>2021-04-20T09:22:55.801Z</time>
      </trkpt>
      <trkpt lat="46.7932" lon="6.75212">
        <ele>471.28</ele>
        <time>2021-04-20T09:23:42.891Z</time>
      </trkpt>
      <trkpt lat="46.79313" lon="6.75224">
        <ele>472.74</ele>
        <time>2021-04-20T09:24:26.202Z</time>
      </trkpt>
      <trkpt lat="46.79305" lon="6.75243">
        <ele>474.52</ele>
        <time>2021-04-20T09:25:15.466Z</time>
      </trkpt>
      <trkpt lat="46.79298" lon="6.75261">
        <ele>476.28</ele>
        <time>2021-04-20T09:26:05.629Z</time>
      </trkpt>
      <trkpt lat="46.79291" lon="6.7528">
        <ele>477.24</ele>
        <time>2021-04-20T09:26:35.426Z</time>
      </trkpt>
      <trkpt lat="46.79278" lon="6.75313">
        <ele>480.38</ele>
        <time>2021-04-20T09:28:03.509Z</time>
      </trkpt>
      <trkpt lat="46.79268" lon="6.75338">
        <ele>482.48</ele>
        <time>2021-04-20T09:29:00.431Z</time>
      </trkpt>
      <trkpt lat="46.79262" lon="6.75355">
        <ele>483.91</ele>
        <time>2021-04-20T09:29:39.347Z</time>
      </trkpt>
      <trkpt lat="46.79255" lon="6.75372">
        <ele>485.35</ele>
        <time>2021-04-20T09:30:18.383Z</time>
      </trkpt>
      <trkpt lat="46.79252" lon="6.75379">
        <ele>486.11</ele>
        <time>2021-04-20T09:30:41.071Z</time>
      </trkpt>
      <trkpt lat="46.79249" lon="6.75386">
        <ele>486.7</ele>
        <time>2021-04-20T09:30:57.044Z</time>
      </trkpt>
      <trkpt lat="46.79245" lon="6.75393">
        <ele>487.2</ele>
        <time>2021-04-20T09:31:11.189Z</time>
      </trkpt>
      <trkpt lat="46.7924" lon="6.75399">
        <ele>487.87</ele>
        <time>2021-04-20T09:31:29.321Z</time>
      </trkpt>
      <trkpt lat="46.79235" lon="6.75405">
        <ele>488.66</ele>
        <time>2021-04-20T09:31:51.627Z</time>
      </trkpt>
      <trkpt lat="46.79224" lon="6.75416">
        <ele>490.12</ele>
        <time>2021-04-20T09:32:31.380Z</time>
      </trkpt>
      <trkpt lat="46.79218" lon="6.7542">
        <ele>490.75</ele>
        <time>2021-04-20T09:32:48.477Z</time>
      </trkpt>
      <trkpt lat="46.79214" lon="6.75423">
        <ele>491.28</ele>
        <time>2021-04-20T09:33:03.207Z</time>
      </trkpt>
      <trkpt lat="46.79208" lon="6.75426">
        <ele>492.12</ele>
        <time>2021-04-20T09:33:28.299Z</time>
      </trkpt>
      <trkpt lat="46.79197" lon="6.7543">
        <ele>493.7</ele>
        <time>2021-04-20T09:34:13.786Z</time>
      </trkpt>
      <trkpt lat="46.79191" lon="6.75432">
        <ele>494.56</ele>
        <time>2021-04-20T09:34:38.482Z</time>
      </trkpt>
      <trkpt lat="46.79184" lon="6.75434">
        <ele>495.25</ele>
        <time>2021-04-20T09:34:57.184Z</time>
      </trkpt>
      <trkpt lat="46.7917" lon="6.75436">
        <ele>496.69</ele>
        <time>2021-04-20T09:35:36.139Z</time>
      </trkpt>
      <trkpt lat="46.79162" lon="6.75438">
        <ele>497.38</ele>
        <time>2021-04-20T09:35:55.299Z</time>
      </trkpt>
      <trkpt lat="46.79149" lon="6.75441">
        <ele>498.92</ele>
        <time>2021-04-20T09:36:37.979Z</time>
      </trkpt>
      <trkpt lat="46.79143" lon="6.75443">
        <ele>499.66</ele>
        <time>2021-04-20T09:36:58.720Z</time>
      </trkpt>
      <trkpt lat="46.7913" lon="6.75449">
        <ele>501.61</ele>
        <time>2021-04-20T09:37:53.428Z</time>
      </trkpt>
      <trkpt lat="46.7912" lon="6.75455">
        <ele>503.12</ele>
        <time>2021-04-20T09:38:36.809Z</time>
      </trkpt>
      <trkpt lat="46.79103" lon="6.75464">
        <ele>505.75</ele>
        <time>2021-04-20T09:39:49.368Z</time>
      </trkpt>
      <trkpt lat="46.79094" lon="6.75469">
        <ele>507.17</ele>
        <time>2021-04-20T09:40:28.006Z</time>
      </trkpt>
      <trkpt lat="46.79089" lon="6.75474">
        <ele>508.25</ele>
        <time>2021-04-20T09:40:52.322Z</time>
      </trkpt>
      <trkpt lat="46.79083" lon="6.75484">
        <ele>509.69</ele>
        <time>2021-04-20T09:41:28.852Z</time>
      </trkpt>
      <trkpt lat="46.79081" lon="6.75491">
        <ele>510.51</ele>
        <time>2021-04-20T09:41:49.691Z</time>
      </trkpt>
      <trkpt lat="46.79079" lon="6.75498">
        <ele>511.33</ele>
        <time>2021-04-20T09:42:10.530Z</time>
      </trkpt>
      <trkpt lat="46.79079" lon="6.75511">
        <ele>512.78</ele>
        <time>2021-04-20T09:42:46.245Z</time>
      </trkpt>
      <trkpt lat="46.7908" lon="6.75521">
        <ele>513.98</ele>
        <time>2021-04-20T09:43:14.010Z</time>
      </trkpt>
      <trkpt lat="46.79081" lon="6.75532">
        <ele>515.27</ele>
        <time>2021-04-20T09:43:44.497Z</time>
      </trkpt>
      <trkpt lat="46.79081" lon="6.75538">
        <ele>516.04</ele>
        <time>2021-04-20T09:44:00.981Z</time>
      </trkpt>
      <trkpt lat="46.7908" lon="6.75542">
        <ele>516.89</ele>
        <time>2021-04-20T09:44:12.680Z</time>
      </trkpt>
      <trkpt lat="46.79077" lon="6.75546">
        <ele>517.71</ele>
        <time>2021-04-20T09:44:28.980Z</time>
      </trkpt>
      <trkpt lat="46.7907" lon="6.75552">
        <ele>519.73</ele>
        <time>2021-04-20T09:45:01.548Z</time>
      </trkpt>
      <trkpt lat="46.79064" lon="6.75557">
        <ele>521.71</ele>
        <time>2021-04-20T09:45:29.268Z</time>
      </trkpt>
      <trkpt lat="46.79061" lon="6.75565">
        <ele>523.72</ele>
        <time>2021-04-20T09:45:54.327Z</time>
      </trkpt>
      <trkpt lat="46.7906" lon="6.7558">
        <ele>529.12</ele>
        <time>2021-04-20T09:46:35.733Z</time>
      </trkpt>
      <trkpt lat="46.79061" lon="6.75591">
        <ele>532.79</ele>
        <time>2021-04-20T09:47:06.219Z</time>
      </trkpt>
      <trkpt lat="46.79059" lon="6.75603">
        <ele>532.27</ele>
        <time>2021-04-20T09:47:08.059Z</time>
      </trkpt>
      <trkpt lat="46.79054" lon="6.75614">
        <ele>533.64</ele>
        <time>2021-04-20T09:47:44.333Z</time>
      </trkpt>
      <trkpt lat="46.7905" lon="6.75619">
        <ele>534.98</ele>
        <time>2021-04-20T09:48:05.460Z</time>
      </trkpt>
      <trkpt lat="46.79046" lon="6.75619">
        <ele>536.89</ele>
        <time>2021-04-20T09:48:21.511Z</time>
      </trkpt>
      <trkpt lat="46.79042" lon="6.75617">
        <ele>537.42</ele>
        <time>2021-04-20T09:48:36.703Z</time>
      </trkpt>
      <trkpt lat="46.7903" lon="6.75607">
        <ele>538.4</ele>
        <time>2021-04-20T09:49:05.830Z</time>
      </trkpt>
      <trkpt lat="46.79022" lon="6.75598">
        <ele>539.42</ele>
        <time>2021-04-20T09:49:33.420Z</time>
      </trkpt>
      <trkpt lat="46.79013" lon="6.75589">
        <ele>541.19</ele>
        <time>2021-04-20T09:50:17.188Z</time>
      </trkpt>
      <trkpt lat="46.79008" lon="6.75581">
        <ele>541.35</ele>
        <time>2021-04-20T09:50:26.804Z</time>
      </trkpt>
      <trkpt lat="46.79003" lon="6.7557">
        <ele>542.12</ele>
        <time>2021-04-20T09:50:48.174Z</time>
      </trkpt>
      <trkpt lat="46.78999" lon="6.75558">
        <ele>540.92</ele>
        <time>2021-04-20T09:50:50.259Z</time>
      </trkpt>
      <trkpt lat="46.78994" lon="6.75549">
        <ele>540.75</ele>
        <time>2021-04-20T09:50:52.783Z</time>
      </trkpt>
      <trkpt lat="46.78988" lon="6.75545">
        <ele>542.12</ele>
        <time>2021-04-20T09:51:19.249Z</time>
      </trkpt>
      <trkpt lat="46.78984" lon="6.75545">
        <ele>543.07</ele>
        <time>2021-04-20T09:51:35.300Z</time>
      </trkpt>
      <trkpt lat="46.78975" lon="6.75546">
        <ele>546.02</ele>
        <time>2021-04-20T09:52:11.518Z</time>
      </trkpt>
      <trkpt lat="46.78971" lon="6.75549">
        <ele>547.67</ele>
        <time>2021-04-20T09:52:29.562Z</time>
      </trkpt>
      <trkpt lat="46.78968" lon="6.75552">
        <ele>548.82</ele>
        <time>2021-04-20T09:52:44.151Z</time>
      </trkpt>
      <trkpt lat="46.78963" lon="6.7556">
        <ele>550.51</ele>
        <time>2021-04-20T09:53:13.911Z</time>
      </trkpt>
      <trkpt lat="46.78959" lon="6.75567">
        <ele>551.15</ele>
        <time>2021-04-20T09:53:31.225Z</time>
      </trkpt>
      <trkpt lat="46.78957" lon="6.75573">
        <ele>551.59</ele>
        <time>2021-04-20T09:53:43.156Z</time>
      </trkpt>
      <trkpt lat="46.78955" lon="6.75578">
        <ele>552.84</ele>
        <time>2021-04-20T09:53:59.065Z</time>
      </trkpt>
      <trkpt lat="46.78954" lon="6.75583">
        <ele>553.89</ele>
        <time>2021-04-20T09:54:13.376Z</time>
      </trkpt>
      <trkpt lat="46.78952" lon="6.75604">
        <ele>559.14</ele>
        <time>2021-04-20T09:55:11.628Z</time>
      </trkpt>
      <trkpt lat="46.78951" lon="6.7561">
        <ele>560.73</ele>
        <time>2021-04-20T09:55:28.593Z</time>
      </trkpt>
      <trkpt lat="46.78949" lon="6.75619">
        <ele>562.6</ele>
        <time>2021-04-20T09:55:54.590Z</time>
      </trkpt>
      <trkpt lat="46.78949" lon="6.75629">
        <ele>564.6</ele>
        <time>2021-04-20T09:56:22.064Z</time>
      </trkpt>
      <trkpt lat="46.78948" lon="6.75637">
        <ele>566.11</ele>
        <time>2021-04-20T09:56:44.407Z</time>
      </trkpt>
      <trkpt lat="46.78946" lon="6.75646">
        <ele>567.67</ele>
        <time>2021-04-20T09:57:10.404Z</time>
      </trkpt>
      <trkpt lat="46.78945" lon="6.75658">
        <ele>569.88</ele>
        <time>2021-04-20T09:57:43.616Z</time>
      </trkpt>
      <trkpt lat="46.78945" lon="6.75665">
        <ele>571.03</ele>
        <time>2021-04-20T09:58:02.848Z</time>
      </trkpt>
      <trkpt lat="46.78945" lon="6.75669">
        <ele>571.73</ele>
        <time>2021-04-20T09:58:13.838Z</time>
      </trkpt>
      <trkpt lat="46.78943" lon="6.75675">
        <ele>572.87</ele>
        <time>2021-04-20T09:58:32.172Z</time>
      </trkpt>
      <trkpt lat="46.78941" lon="6.75677">
        <ele>573.64</ele>
        <time>2021-04-20T09:58:41.898Z</time>
      </trkpt>
      <trkpt lat="46.78935" lon="6.75679">
        <ele>575.6</ele>
        <time>2021-04-20T09:59:06.594Z</time>
      </trkpt>
      <trkpt lat="46.78926" lon="6.7568">
        <ele>579.03</ele>
        <time>2021-04-20T09:59:42.812Z</time>
      </trkpt>
      <trkpt lat="46.78919" lon="6.75684">
        <ele>580.16</ele>
        <time>2021-04-20T10:00:12.975Z</time>
      </trkpt>
      <trkpt lat="46.78916" lon="6.75692">
        <ele>580.38</ele>
        <time>2021-04-20T10:00:22.567Z</time>
      </trkpt>
      <trkpt lat="46.78908" lon="6.75688">
        <ele>580.84</ele>
        <time>2021-04-20T10:00:38.405Z</time>
      </trkpt>
      <trkpt lat="46.78896" lon="6.75684">
        <ele>581.51</ele>
        <time>2021-04-20T10:01:01.465Z</time>
      </trkpt>
      <trkpt lat="46.78889" lon="6.75682">
        <ele>580.92</ele>
        <time>2021-04-20T10:01:03.093Z</time>
      </trkpt>
      <trkpt lat="46.78871" lon="6.75677">
        <ele>582.57</ele>
        <time>2021-04-20T10:01:48.282Z</time>
      </trkpt>
      <trkpt lat="46.78839" lon="6.7567">
        <ele>584.95</ele>
        <time>2021-04-20T10:02:57.884Z</time>
      </trkpt>
      <trkpt lat="46.7881" lon="6.75663">
        <ele>586.83</ele>
        <time>2021-04-20T10:03:56.736Z</time>
      </trkpt>
      <trkpt lat="46.78809" lon="6.7567">
        <ele>586.85</ele>
        <time>2021-04-20T10:04:02.027Z</time>
      </trkpt>
      <trkpt lat="46.7881" lon="6.75675">
        <ele>587.08</ele>
        <time>2021-04-20T10:04:09.195Z</time>
      </trkpt>
      <trkpt lat="46.78812" lon="6.7568">
        <ele>587.13</ele>
        <time>2021-04-20T10:04:13.859Z</time>
      </trkpt>
      <trkpt lat="46.78814" lon="6.75684">
        <ele>587.17</ele>
        <time>2021-04-20T10:04:17.814Z</time>
      </trkpt>
      <trkpt lat="46.78818" lon="6.75687">
        <ele>587.35</ele>
        <time>2021-04-20T10:04:25.201Z</time>
      </trkpt>
      <trkpt lat="46.78824" lon="6.75689">
        <ele>587.4</ele>
        <time>2021-04-20T10:04:32.118Z</time>
      </trkpt>
      <trkpt lat="46.78837" lon="6.75694">
        <ele>587.75</ele>
        <time>2021-04-20T10:04:50.483Z</time>
      </trkpt>
      <trkpt lat="46.78853" lon="6.757">
        <ele>588.22</ele>
        <time>2021-04-20T10:05:13.725Z</time>
      </trkpt>
      <trkpt lat="46.78865" lon="6.75704">
        <ele>589.11</ele>
        <time>2021-04-20T10:05:39.948Z</time>
      </trkpt>
      <trkpt lat="46.7887" lon="6.75707">
        <ele>589.5</ele>
        <time>2021-04-20T10:05:51.451Z</time>
      </trkpt>
      <trkpt lat="46.78876" lon="6.7571">
        <ele>589.83</ele>
        <time>2021-04-20T10:06:03.143Z</time>
      </trkpt>
      <trkpt lat="46.78881" lon="6.75714">
        <ele>590.21</ele>
        <time>2021-04-20T10:06:14.784Z</time>
      </trkpt>
      <trkpt lat="46.78886" lon="6.75719">
        <ele>590.36</ele>
        <time>2021-04-20T10:06:22.936Z</time>
      </trkpt>
      <trkpt lat="46.78891" lon="6.75725">
        <ele>590.73</ele>
        <time>2021-04-20T10:06:35.289Z</time>
      </trkpt>
      <trkpt lat="46.78894" lon="6.75731">
        <ele>591.1</ele>
        <time>2021-04-20T10:06:46.162Z</time>
      </trkpt>
      <trkpt lat="46.78897" lon="6.75736">
        <ele>591.41</ele>
        <time>2021-04-20T10:06:55.557Z</time>
      </trkpt>
      <trkpt lat="46.789" lon="6.75745">
        <ele>592.02</ele>
        <time>2021-04-20T10:07:12.304Z</time>
      </trkpt>
      <trkpt lat="46.78903" lon="6.75753">
        <ele>592.09</ele>
        <time>2021-04-20T10:07:19.544Z</time>
      </trkpt>
      <trkpt lat="46.78906" lon="6.75764">
        <ele>592.57</ele>
        <time>2021-04-20T10:07:35.239Z</time>
      </trkpt>
      <trkpt lat="46.78912" lon="6.75785">
        <ele>593.12</ele>
        <time>2021-04-20T10:07:59.193Z</time>
      </trkpt>
      <trkpt lat="46.78915" lon="6.75796">
        <ele>593.83</ele>
        <time>2021-04-20T10:08:18.757Z</time>
      </trkpt>
      <trkpt lat="46.78915" lon="6.75795">
        <ele>593.83</ele>
        <time>2021-04-20T10:08:19.469Z</time>
      </trkpt>
      <trkpt lat="46.7893" lon="6.7585">
        <ele>594.55</ele>
        <time>2021-04-20T10:09:09.834Z</time>
      </trkpt>
      <trkpt lat="46.7895" lon="6.75922">
        <ele>595.54</ele>
        <time>2021-04-20T10:10:16.551Z</time>
      </trkpt>
      <trkpt lat="46.7896" lon="6.7596">
        <ele>596.03</ele>
        <time>2021-04-20T10:10:51.114Z</time>
      </trkpt>
      <trkpt lat="46.78968" lon="6.75994">
        <ele>596.28</ele>
        <time>2021-04-20T10:11:19.349Z</time>
      </trkpt>
      <trkpt lat="46.78972" lon="6.76015">
        <ele>596.3</ele>
        <time>2021-04-20T10:11:35.068Z</time>
      </trkpt>
      <trkpt lat="46.78976" lon="6.76032">
        <ele>596.58</ele>
        <time>2021-04-20T10:11:51.243Z</time>
      </trkpt>
      <trkpt lat="46.78976" lon="6.76038">
        <ele>596.73</ele>
        <time>2021-04-20T10:11:57.664Z</time>
      </trkpt>
      <trkpt lat="46.78977" lon="6.76043">
        <ele>596.77</ele>
        <time>2021-04-20T10:12:01.799Z</time>
      </trkpt>
      <trkpt lat="46.78977" lon="6.76044">
        <ele>596.77</ele>
        <time>2021-04-20T10:12:02.512Z</time>
      </trkpt>
      <trkpt lat="46.78976" lon="6.7605">
        <ele>597.04</ele>
        <time>2021-04-20T10:12:10.971Z</time>
      </trkpt>
      <trkpt lat="46.78976" lon="6.76051">
        <ele>597.13</ele>
        <time>2021-04-20T10:12:13.642Z</time>
      </trkpt>
      <trkpt lat="46.78975" lon="6.76057">
        <ele>597.48</ele>
        <time>2021-04-20T10:12:23.437Z</time>
      </trkpt>
      <trkpt lat="46.78972" lon="6.76063">
        <ele>597.48</ele>
        <time>2021-04-20T10:12:28.729Z</time>
      </trkpt>
      <trkpt lat="46.78969" lon="6.76068">
        <ele>597.77</ele>
        <time>2021-04-20T10:12:37.826Z</time>
      </trkpt>
      <trkpt lat="46.78966" lon="6.76073">
        <ele>597.99</ele>
        <time>2021-04-20T10:12:46.017Z</time>
      </trkpt>
      <trkpt lat="46.7896" lon="6.76077">
        <ele>598.35</ele>
        <time>2021-04-20T10:12:58.386Z</time>
      </trkpt>
      <trkpt lat="46.78952" lon="6.76082">
        <ele>599.38</ele>
        <time>2021-04-20T10:13:27.059Z</time>
      </trkpt>
      <trkpt lat="46.78931" lon="6.76097">
        <ele>600.75</ele>
        <time>2021-04-20T10:14:12.124Z</time>
      </trkpt>
      <trkpt lat="46.78922" lon="6.761">
        <ele>600.89</ele>
        <time>2021-04-20T10:14:23.277Z</time>
      </trkpt>
      <trkpt lat="46.78917" lon="6.76102">
        <ele>600.99</ele>
        <time>2021-04-20T10:14:29.828Z</time>
      </trkpt>
      <trkpt lat="46.78911" lon="6.76103">
        <ele>601.23</ele>
        <time>2021-04-20T10:14:39.707Z</time>
      </trkpt>
      <trkpt lat="46.78906" lon="6.76096">
        <ele>601.84</ele>
        <time>2021-04-20T10:14:56.493Z</time>
      </trkpt>
      <trkpt lat="46.78904" lon="6.76092">
        <ele>601.7</ele>
        <time>2021-04-20T10:14:57.371Z</time>
      </trkpt>
      <trkpt lat="46.789" lon="6.7609">
        <ele>602.41</ele>
        <time>2021-04-20T10:15:14.336Z</time>
      </trkpt>
      <trkpt lat="46.78897" lon="6.76088">
        <ele>602.99</ele>
        <time>2021-04-20T10:15:27.569Z</time>
      </trkpt>
      <trkpt lat="46.78893" lon="6.76088">
        <ele>603.65</ele>
        <time>2021-04-20T10:15:43.620Z</time>
      </trkpt>
      <trkpt lat="46.78893" lon="6.76088">
        <ele>603.66</ele>
        <time>2021-04-20T10:15:43.620Z</time>
      </trkpt>
      <trkpt lat="46.7888" lon="6.76089">
        <ele>604.92</ele>
        <time>2021-04-20T10:16:17.770Z</time>
      </trkpt>
      <trkpt lat="46.78866" lon="6.7609">
        <ele>606.07</ele>
        <time>2021-04-20T10:16:50.044Z</time>
      </trkpt>
      <trkpt lat="46.78863" lon="6.76091">
        <ele>606.32</ele>
        <time>2021-04-20T10:16:57.082Z</time>
      </trkpt>
      <trkpt lat="46.7886" lon="6.76093">
        <ele>606.61</ele>
        <time>2021-04-20T10:17:05.066Z</time>
      </trkpt>
      <trkpt lat="46.78857" lon="6.76096">
        <ele>606.88</ele>
        <time>2021-04-20T10:17:12.930Z</time>
      </trkpt>
      <trkpt lat="46.78856" lon="6.76098">
        <ele>607.05</ele>
        <time>2021-04-20T10:17:17.529Z</time>
      </trkpt>
      <trkpt lat="46.78853" lon="6.76106">
        <ele>607.75</ele>
        <time>2021-04-20T10:17:36.680Z</time>
      </trkpt>
      <trkpt lat="46.78846" lon="6.7612">
        <ele>609.1</ele>
        <time>2021-04-20T10:18:13.754Z</time>
      </trkpt>
      <trkpt lat="46.78839" lon="6.76136">
        <ele>610.87</ele>
        <time>2021-04-20T10:19:05.921Z</time>
      </trkpt>
      <trkpt lat="46.78838" lon="6.76141">
        <ele>611.32</ele>
        <time>2021-04-20T10:19:18.873Z</time>
      </trkpt>
      <trkpt lat="46.78835" lon="6.76149">
        <ele>612.13</ele>
        <time>2021-04-20T10:19:42.650Z</time>
      </trkpt>
      <trkpt lat="46.78833" lon="6.76154">
        <ele>612.58</ele>
        <time>2021-04-20T10:19:55.001Z</time>
      </trkpt>
      <trkpt lat="46.78829" lon="6.76167">
        <ele>613.81</ele>
        <time>2021-04-20T10:20:30.380Z</time>
      </trkpt>
      <trkpt lat="46.78826" lon="6.76173">
        <ele>614.38</ele>
        <time>2021-04-20T10:20:45.973Z</time>
      </trkpt>
      <trkpt lat="46.78824" lon="6.76177">
        <ele>614.84</ele>
        <time>2021-04-20T10:20:59.582Z</time>
      </trkpt>
      <trkpt lat="46.78822" lon="6.7618">
        <ele>615.33</ele>
        <time>2021-04-20T10:21:11.086Z</time>
      </trkpt>
      <trkpt lat="46.78818" lon="6.76181">
        <ele>615.53</ele>
        <time>2021-04-20T10:21:18.433Z</time>
      </trkpt>
      <trkpt lat="46.78813" lon="6.76182">
        <ele>615.91</ele>
        <time>2021-04-20T10:21:29.438Z</time>
      </trkpt>
      <trkpt lat="46.78811" lon="6.76182">
        <ele>616.01</ele>
        <time>2021-04-20T10:21:33.076Z</time>
      </trkpt>
      <trkpt lat="46.78779" lon="6.76179">
        <ele>617.88</ele>
        <time>2021-04-20T10:22:34.768Z</time>
      </trkpt>
      <trkpt lat="46.7877" lon="6.76178">
        <ele>618.42</ele>
        <time>2021-04-20T10:22:52.317Z</time>
      </trkpt>
      <trkpt lat="46.78764" lon="6.76176">
        <ele>618.54</ele>
        <time>2021-04-20T10:23:00.112Z</time>
      </trkpt>
      <trkpt lat="46.78759" lon="6.76173">
        <ele>618.8</ele>
        <time>2021-04-20T10:23:09.824Z</time>
      </trkpt>
      <trkpt lat="46.78756" lon="6.76169">
        <ele>618.63</ele>
        <time>2021-04-20T10:23:10.870Z</time>
      </trkpt>
      <trkpt lat="46.78753" lon="6.76165">
        <ele>618.71</ele>
        <time>2021-04-20T10:23:16.026Z</time>
      </trkpt>
      <trkpt lat="46.7875" lon="6.7616">
        <ele>618.68</ele>
        <time>2021-04-20T10:23:20.327Z</time>
      </trkpt>
      <trkpt lat="46.7875" lon="6.76156">
        <ele>618.54</ele>
        <time>2021-04-20T10:23:20.976Z</time>
      </trkpt>
      <trkpt lat="46.78749" lon="6.76149">
        <ele>618.5</ele>
        <time>2021-04-20T10:23:22.814Z</time>
      </trkpt>
      <trkpt lat="46.78748" lon="6.76127">
        <ele>617.86</ele>
        <time>2021-04-20T10:23:26.681Z</time>
      </trkpt>
      <trkpt lat="46.78747" lon="6.76108">
        <ele>617.22</ele>
        <time>2021-04-20T10:23:29.829Z</time>
      </trkpt>
      <trkpt lat="46.78748" lon="6.761">
        <ele>616.97</ele>
        <time>2021-04-20T10:23:31.222Z</time>
      </trkpt>
      <trkpt lat="46.78749" lon="6.76092">
        <ele>616.54</ele>
        <time>2021-04-20T10:23:32.493Z</time>
      </trkpt>
      <trkpt lat="46.78751" lon="6.76086">
        <ele>616.1</ele>
        <time>2021-04-20T10:23:33.535Z</time>
      </trkpt>
      <trkpt lat="46.78751" lon="6.7608">
        <ele>615.93</ele>
        <time>2021-04-20T10:23:34.598Z</time>
      </trkpt>
      <trkpt lat="46.78751" lon="6.76074">
        <ele>615.65</ele>
        <time>2021-04-20T10:23:35.535Z</time>
      </trkpt>
      <trkpt lat="46.78749" lon="6.7607">
        <ele>615.59</ele>
        <time>2021-04-20T10:23:36.662Z</time>
      </trkpt>
      <trkpt lat="46.78747" lon="6.76068">
        <ele>615.56</ele>
        <time>2021-04-20T10:23:37.523Z</time>
      </trkpt>
      <trkpt lat="46.78745" lon="6.76067">
        <ele>615.59</ele>
        <time>2021-04-20T10:23:40.051Z</time>
      </trkpt>
      <trkpt lat="46.78742" lon="6.76066">
        <ele>615.65</ele>
        <time>2021-04-20T10:23:43.948Z</time>
      </trkpt>
      <trkpt lat="46.78738" lon="6.76067">
        <ele>615.62</ele>
        <time>2021-04-20T10:23:45.489Z</time>
      </trkpt>
      <trkpt lat="46.78739" lon="6.76068">
        <ele>615.65</ele>
        <time>2021-04-20T10:23:47.119Z</time>
      </trkpt>
      <trkpt lat="46.78739" lon="6.76074">
        <ele>615.81</ele>
        <time>2021-04-20T10:23:53.763Z</time>
      </trkpt>
      <trkpt lat="46.7874" lon="6.76087">
        <ele>616.38</ele>
        <time>2021-04-20T10:24:11.656Z</time>
      </trkpt>
      <trkpt lat="46.7874" lon="6.76103">
        <ele>616.79</ele>
        <time>2021-04-20T10:24:28.998Z</time>
      </trkpt>
      <trkpt lat="46.78736" lon="6.76103">
        <ele>617.27</ele>
        <time>2021-04-20T10:24:42.439Z</time>
      </trkpt>
      <trkpt lat="46.78733" lon="6.76104">
        <ele>617.44</ele>
        <time>2021-04-20T10:24:48.236Z</time>
      </trkpt>
      <trkpt lat="46.78731" lon="6.76107">
        <ele>617.77</ele>
        <time>2021-04-20T10:24:57.330Z</time>
      </trkpt>
      <trkpt lat="46.78723" lon="6.76131">
        <ele>620.22</ele>
        <time>2021-04-20T10:26:10.670Z</time>
      </trkpt>
      <trkpt lat="46.78718" lon="6.76143">
        <ele>621.77</ele>
        <time>2021-04-20T10:26:49.265Z</time>
      </trkpt>
      <trkpt lat="46.78707" lon="6.76169">
        <ele>624.63</ele>
        <time>2021-04-20T10:28:13.238Z</time>
      </trkpt>
      <trkpt lat="46.78707" lon="6.76169">
        <ele>624.63</ele>
        <time>2021-04-20T10:28:13.238Z</time>
      </trkpt>
      <trkpt lat="46.78696" lon="6.76192">
        <ele>627.48</ele>
        <time>2021-04-20T10:29:30.321Z</time>
      </trkpt>
      <trkpt lat="46.78693" lon="6.76197">
        <ele>628.27</ele>
        <time>2021-04-20T10:29:48.587Z</time>
      </trkpt>
      <trkpt lat="46.78689" lon="6.76201">
        <ele>628.86</ele>
        <time>2021-04-20T10:30:05.220Z</time>
      </trkpt>
      <trkpt lat="46.78685" lon="6.76204">
        <ele>629.56</ele>
        <time>2021-04-20T10:30:23.264Z</time>
      </trkpt>
      <trkpt lat="46.78681" lon="6.76207">
        <ele>630.11</ele>
        <time>2021-04-20T10:30:38.809Z</time>
      </trkpt>
      <trkpt lat="46.78676" lon="6.76209">
        <ele>630.94</ele>
        <time>2021-04-20T10:30:59.611Z</time>
      </trkpt>
      <trkpt lat="46.7867" lon="6.76209">
        <ele>631.55</ele>
        <time>2021-04-20T10:31:16.111Z</time>
      </trkpt>
      <trkpt lat="46.78663" lon="6.76209">
        <ele>632.67</ele>
        <time>2021-04-20T10:31:44.200Z</time>
      </trkpt>
      <trkpt lat="46.78652" lon="6.76207">
        <ele>633.97</ele>
        <time>2021-04-20T10:32:20.260Z</time>
      </trkpt>
      <trkpt lat="46.7864" lon="6.76205">
        <ele>635.6</ele>
        <time>2021-04-20T10:33:08.725Z</time>
      </trkpt>
      <trkpt lat="46.78632" lon="6.76204">
        <ele>636.85</ele>
        <time>2021-04-20T10:33:40.944Z</time>
      </trkpt>
      <trkpt lat="46.78626" lon="6.76203">
        <ele>637.62</ele>
        <time>2021-04-20T10:34:03.264Z</time>
      </trkpt>
      <trkpt lat="46.78622" lon="6.76203">
        <ele>638.1</ele>
        <time>2021-04-20T10:34:16.705Z</time>
      </trkpt>
      <trkpt lat="46.78619" lon="6.76204">
        <ele>638.58</ele>
        <time>2021-04-20T10:34:29.053Z</time>
      </trkpt>
      <trkpt lat="46.78616" lon="6.76205">
        <ele>639.09</ele>
        <time>2021-04-20T10:34:41.400Z</time>
      </trkpt>
      <trkpt lat="46.78613" lon="6.76206">
        <ele>639.49</ele>
        <time>2021-04-20T10:34:53.163Z</time>
      </trkpt>
      <trkpt lat="46.7861" lon="6.76208">
        <ele>640</ele>
        <time>2021-04-20T10:35:06.396Z</time>
      </trkpt>
      <trkpt lat="46.78608" lon="6.76211">
        <ele>640.5</ele>
        <time>2021-04-20T10:35:17.900Z</time>
      </trkpt>
      <trkpt lat="46.78605" lon="6.76213">
        <ele>640.99</ele>
        <time>2021-04-20T10:35:31.133Z</time>
      </trkpt>
      <trkpt lat="46.78604" lon="6.76217">
        <ele>641.49</ele>
        <time>2021-04-20T10:35:42.833Z</time>
      </trkpt>
      <trkpt lat="46.78602" lon="6.76222">
        <ele>642.11</ele>
        <time>2021-04-20T10:35:58.744Z</time>
      </trkpt>
      <trkpt lat="46.786" lon="6.7623">
        <ele>642.94</ele>
        <time>2021-04-20T10:36:22.144Z</time>
      </trkpt>
      <trkpt lat="46.78593" lon="6.76267">
        <ele>646.97</ele>
        <time>2021-04-20T10:38:07.614Z</time>
      </trkpt>
      <trkpt lat="46.7859" lon="6.7628">
        <ele>648.15</ele>
        <time>2021-04-20T10:38:41.482Z</time>
      </trkpt>
      <trkpt lat="46.78587" lon="6.76291">
        <ele>649.02</ele>
        <time>2021-04-20T10:39:05.098Z</time>
      </trkpt>
      <trkpt lat="46.78582" lon="6.76304">
        <ele>649.96</ele>
        <time>2021-04-20T10:39:30.737Z</time>
      </trkpt>
      <trkpt lat="46.78577" lon="6.76316">
        <ele>650.79</ele>
        <time>2021-04-20T10:39:53.693Z</time>
      </trkpt>
      <trkpt lat="46.78571" lon="6.76332">
        <ele>650.82</ele>
        <time>2021-04-20T10:40:06.980Z</time>
      </trkpt>
      <trkpt lat="46.7857" lon="6.76337">
        <ele>650.44</ele>
        <time>2021-04-20T10:40:07.794Z</time>
      </trkpt>
      <trkpt lat="46.78569" lon="6.7635">
        <ele>650.25</ele>
        <time>2021-04-20T10:40:10.650Z</time>
      </trkpt>
      <trkpt lat="46.78558" lon="6.76351">
        <ele>650.05</ele>
        <time>2021-04-20T10:40:14.294Z</time>
      </trkpt>
      <trkpt lat="46.78553" lon="6.76354">
        <ele>649.84</ele>
        <time>2021-04-20T10:40:15.725Z</time>
      </trkpt>
      <trkpt lat="46.78546" lon="6.76357">
        <ele>649.55</ele>
        <time>2021-04-20T10:40:17.641Z</time>
      </trkpt>
      <trkpt lat="46.78542" lon="6.7636">
        <ele>649.25</ele>
        <time>2021-04-20T10:40:18.580Z</time>
      </trkpt>
      <trkpt lat="46.78536" lon="6.76365">
        <ele>648.86</ele>
        <time>2021-04-20T10:40:20.145Z</time>
      </trkpt>
      <trkpt lat="46.78531" lon="6.7637">
        <ele>648.42</ele>
        <time>2021-04-20T10:40:21.528Z</time>
      </trkpt>
      <trkpt lat="46.78525" lon="6.76377">
        <ele>647.95</ele>
        <time>2021-04-20T10:40:23.203Z</time>
      </trkpt>
      <trkpt lat="46.78511" lon="6.76396">
        <ele>646.68</ele>
        <time>2021-04-20T10:40:27.204Z</time>
      </trkpt>
      <trkpt lat="46.78504" lon="6.76406">
        <ele>646.37</ele>
        <time>2021-04-20T10:40:29.990Z</time>
      </trkpt>
      <trkpt lat="46.78499" lon="6.76413">
        <ele>646.26</ele>
        <time>2021-04-20T10:40:32.343Z</time>
      </trkpt>
      <trkpt lat="46.78493" lon="6.76425">
        <ele>645.93</ele>
        <time>2021-04-20T10:40:35.215Z</time>
      </trkpt>
      <trkpt lat="46.78478" lon="6.76453">
        <ele>645.73</ele>
        <time>2021-04-20T10:40:44.350Z</time>
      </trkpt>
      <trkpt lat="46.78476" lon="6.76456">
        <ele>645.73</ele>
        <time>2021-04-20T10:40:47.333Z</time>
      </trkpt>
      <trkpt lat="46.78462" lon="6.7648">
        <ele>645.8</ele>
        <time>2021-04-20T10:41:10.480Z</time>
      </trkpt>
      <trkpt lat="46.78454" lon="6.7649">
        <ele>645.93</ele>
        <time>2021-04-20T10:41:22.832Z</time>
      </trkpt>
      <trkpt lat="46.7845" lon="6.76496">
        <ele>646.02</ele>
        <time>2021-04-20T10:41:29.799Z</time>
      </trkpt>
      <trkpt lat="46.78449" lon="6.76497">
        <ele>646.05</ele>
        <time>2021-04-20T10:41:31.429Z</time>
      </trkpt>
      <trkpt lat="46.78439" lon="6.7651">
        <ele>646.21</ele>
        <time>2021-04-20T10:41:47.069Z</time>
      </trkpt>
      <trkpt lat="46.78435" lon="6.76515">
        <ele>646.17</ele>
        <time>2021-04-20T10:41:49.062Z</time>
      </trkpt>
      <trkpt lat="46.78427" lon="6.76526">
        <ele>646.23</ele>
        <time>2021-04-20T10:42:01.095Z</time>
      </trkpt>
      <trkpt lat="46.78413" lon="6.76544">
        <ele>646.4</ele>
        <time>2021-04-20T10:42:22.267Z</time>
      </trkpt>
      <trkpt lat="46.78413" lon="6.76543">
        <ele>646.32</ele>
        <time>2021-04-20T10:42:22.423Z</time>
      </trkpt>
      <trkpt lat="46.78413" lon="6.76543">
        <ele>646.32</ele>
        <time>2021-04-20T10:42:22.423Z</time>
      </trkpt>
      <trkpt lat="46.78413" lon="6.76544">
        <ele>646.4</ele>
        <time>2021-04-20T10:42:24.639Z</time>
      </trkpt>
      <trkpt lat="46.78393" lon="6.76566">
        <ele>646.57</ele>
        <time>2021-04-20T10:42:52.415Z</time>
      </trkpt>
      <trkpt lat="46.78381" lon="6.76579">
        <ele>646.86</ele>
        <time>2021-04-20T10:43:11.320Z</time>
      </trkpt>
      <trkpt lat="46.78374" lon="6.76587">
        <ele>646.9</ele>
        <time>2021-04-20T10:43:20.965Z</time>
      </trkpt>
      <trkpt lat="46.78358" lon="6.76604">
        <ele>647.27</ele>
        <time>2021-04-20T10:43:45.804Z</time>
      </trkpt>
      <trkpt lat="46.78343" lon="6.76619">
        <ele>647.84</ele>
        <time>2021-04-20T10:44:12.337Z</time>
      </trkpt>
      <trkpt lat="46.78338" lon="6.76623">
        <ele>648.06</ele>
        <time>2021-04-20T10:44:21.511Z</time>
      </trkpt>
      <trkpt lat="46.78333" lon="6.76627">
        <ele>648.28</ele>
        <time>2021-04-20T10:44:30.684Z</time>
      </trkpt>
      <trkpt lat="46.78322" lon="6.76631">
        <ele>648.76</ele>
        <time>2021-04-20T10:44:49.949Z</time>
      </trkpt>
      <trkpt lat="46.78315" lon="6.76633">
        <ele>649.09</ele>
        <time>2021-04-20T10:45:02.614Z</time>
      </trkpt>
      <trkpt lat="46.78309" lon="6.76635">
        <ele>649.36</ele>
        <time>2021-04-20T10:45:13.318Z</time>
      </trkpt>
      <trkpt lat="46.78299" lon="6.76636">
        <ele>649.94</ele>
        <time>2021-04-20T10:45:32.542Z</time>
      </trkpt>
      <trkpt lat="46.78294" lon="6.76637">
        <ele>650.24</ele>
        <time>2021-04-20T10:45:42.328Z</time>
      </trkpt>
      <trkpt lat="46.78285" lon="6.76637">
        <ele>650.75</ele>
        <time>2021-04-20T10:45:59.448Z</time>
      </trkpt>
      <trkpt lat="46.78278" lon="6.76639">
        <ele>651.02</ele>
        <time>2021-04-20T10:46:10.807Z</time>
      </trkpt>
      <trkpt lat="46.78278" lon="6.76635">
        <ele>651.05</ele>
        <time>2021-04-20T10:46:13.974Z</time>
      </trkpt>
      <trkpt lat="46.78276" lon="6.76633">
        <ele>651.02</ele>
        <time>2021-04-20T10:46:14.835Z</time>
      </trkpt>
      <trkpt lat="46.78273" lon="6.76631">
        <ele>651.22</ele>
        <time>2021-04-20T10:46:21.284Z</time>
      </trkpt>
      <trkpt lat="46.78259" lon="6.76627">
        <ele>651.49</ele>
        <time>2021-04-20T10:46:39.237Z</time>
      </trkpt>
      <trkpt lat="46.78245" lon="6.76623">
        <ele>651.31</ele>
        <time>2021-04-20T10:46:44.288Z</time>
      </trkpt>
      <trkpt lat="46.78237" lon="6.76621">
        <ele>651.08</ele>
        <time>2021-04-20T10:46:46.679Z</time>
      </trkpt>
      <trkpt lat="46.78219" lon="6.76617">
        <ele>649.71</ele>
        <time>2021-04-20T10:46:50.833Z</time>
      </trkpt>
      <trkpt lat="46.78196" lon="6.76613">
        <ele>647.64</ele>
        <time>2021-04-20T10:46:56.118Z</time>
      </trkpt>
      <trkpt lat="46.78193" lon="6.76612">
        <ele>647.06</ele>
        <time>2021-04-20T10:46:56.820Z</time>
      </trkpt>
      <trkpt lat="46.78189" lon="6.7661">
        <ele>646.7</ele>
        <time>2021-04-20T10:46:57.784Z</time>
      </trkpt>
      <trkpt lat="46.78186" lon="6.76608">
        <ele>646.33</ele>
        <time>2021-04-20T10:46:58.537Z</time>
      </trkpt>
      <trkpt lat="46.78183" lon="6.76604">
        <ele>645.93</ele>
        <time>2021-04-20T10:46:59.464Z</time>
      </trkpt>
      <trkpt lat="46.78168" lon="6.76587">
        <ele>643.84</ele>
        <time>2021-04-20T10:47:03.796Z</time>
      </trkpt>
      <trkpt lat="46.78155" lon="6.76571">
        <ele>642.1</ele>
        <time>2021-04-20T10:47:07.675Z</time>
      </trkpt>
      <trkpt lat="46.78143" lon="6.76557">
        <ele>640.55</ele>
        <time>2021-04-20T10:47:11.179Z</time>
      </trkpt>
      <trkpt lat="46.78143" lon="6.76556">
        <ele>640.55</ele>
        <time>2021-04-20T10:47:11.891Z</time>
      </trkpt>
      <trkpt lat="46.7813" lon="6.76542">
        <ele>638.99</ele>
        <time>2021-04-20T10:47:15.577Z</time>
      </trkpt>
      <trkpt lat="46.78116" lon="6.76525">
        <ele>637.58</ele>
        <time>2021-04-20T10:47:19.731Z</time>
      </trkpt>
      <trkpt lat="46.78109" lon="6.76516">
        <ele>637.03</ele>
        <time>2021-04-20T10:47:21.801Z</time>
      </trkpt>
      <trkpt lat="46.78076" lon="6.76478">
        <ele>635.21</ele>
        <time>2021-04-20T10:47:32.475Z</time>
      </trkpt>
      <trkpt lat="46.7805" lon="6.76448">
        <ele>634.26</ele>
        <time>2021-04-20T10:47:42.203Z</time>
      </trkpt>
      <trkpt lat="46.78039" lon="6.76435">
        <ele>633.92</ele>
        <time>2021-04-20T10:47:46.573Z</time>
      </trkpt>
      <trkpt lat="46.78035" lon="6.7643">
        <ele>633.86</ele>
        <time>2021-04-20T10:47:48.467Z</time>
      </trkpt>
      <trkpt lat="46.78027" lon="6.76419">
        <ele>633.35</ele>
        <time>2021-04-20T10:47:51.180Z</time>
      </trkpt>
      <trkpt lat="46.78024" lon="6.76414">
        <ele>633.08</ele>
        <time>2021-04-20T10:47:52.188Z</time>
      </trkpt>
      <trkpt lat="46.78021" lon="6.76409">
        <ele>632.76</ele>
        <time>2021-04-20T10:47:53.226Z</time>
      </trkpt>
      <trkpt lat="46.7802" lon="6.76405">
        <ele>632.54</ele>
        <time>2021-04-20T10:47:53.892Z</time>
      </trkpt>
      <trkpt lat="46.78018" lon="6.764">
        <ele>632.38</ele>
        <time>2021-04-20T10:47:54.927Z</time>
      </trkpt>
      <trkpt lat="46.78015" lon="6.76403">
        <ele>632.83</ele>
        <time>2021-04-20T10:48:07.728Z</time>
      </trkpt>
      <trkpt lat="46.78007" lon="6.76411">
        <ele>634.02</ele>
        <time>2021-04-20T10:48:41.423Z</time>
      </trkpt>
      <trkpt lat="46.78004" lon="6.76414">
        <ele>634.5</ele>
        <time>2021-04-20T10:48:55.719Z</time>
      </trkpt>
      <trkpt lat="46.7799" lon="6.76426">
        <ele>637.61</ele>
        <time>2021-04-20T10:50:00.860Z</time>
      </trkpt>
      <trkpt lat="46.77986" lon="6.76429">
        <ele>638.49</ele>
        <time>2021-04-20T10:50:18.904Z</time>
      </trkpt>
      <trkpt lat="46.77984" lon="6.7643">
        <ele>639.03</ele>
        <time>2021-04-20T10:50:27.387Z</time>
      </trkpt>
      <trkpt lat="46.7798" lon="6.7643">
        <ele>639.72</ele>
        <time>2021-04-20T10:50:43.438Z</time>
      </trkpt>
      <trkpt lat="46.77977" lon="6.76427">
        <ele>639.67</ele>
        <time>2021-04-20T10:50:44.707Z</time>
      </trkpt>
      <trkpt lat="46.77964" lon="6.76404">
        <ele>639.12</ele>
        <time>2021-04-20T10:50:50.815Z</time>
      </trkpt>
      <trkpt lat="46.7796" lon="6.76399">
        <ele>638.88</ele>
        <time>2021-04-20T10:50:52.125Z</time>
      </trkpt>
      <trkpt lat="46.77954" lon="6.76391">
        <ele>638.59</ele>
        <time>2021-04-20T10:50:54.344Z</time>
      </trkpt>
      <trkpt lat="46.77949" lon="6.76384">
        <ele>638.56</ele>
        <time>2021-04-20T10:51:01.102Z</time>
      </trkpt>
      <trkpt lat="46.77941" lon="6.76376">
        <ele>638.14</ele>
        <time>2021-04-20T10:51:03.564Z</time>
      </trkpt>
      <trkpt lat="46.77932" lon="6.76367">
        <ele>637.74</ele>
        <time>2021-04-20T10:51:06.515Z</time>
      </trkpt>
      <trkpt lat="46.77925" lon="6.76358">
        <ele>637.22</ele>
        <time>2021-04-20T10:51:08.640Z</time>
      </trkpt>
      <trkpt lat="46.77912" lon="6.76344">
        <ele>636.39</ele>
        <time>2021-04-20T10:51:12.459Z</time>
      </trkpt>
      <trkpt lat="46.77912" lon="6.76343">
        <ele>636.39</ele>
        <time>2021-04-20T10:51:13.171Z</time>
      </trkpt>
      <trkpt lat="46.77905" lon="6.76336">
        <ele>635.56</ele>
        <time>2021-04-20T10:51:15.107Z</time>
      </trkpt>
      <trkpt lat="46.77896" lon="6.76322">
        <ele>634.58</ele>
        <time>2021-04-20T10:51:18.107Z</time>
      </trkpt>
      <trkpt lat="46.77889" lon="6.76313">
        <ele>633.4</ele>
        <time>2021-04-20T10:51:20.235Z</time>
      </trkpt>
      <trkpt lat="46.77884" lon="6.76306">
        <ele>633.24</ele>
        <time>2021-04-20T10:51:22.397Z</time>
      </trkpt>
      <trkpt lat="46.77879" lon="6.76298">
        <ele>632.73</ele>
        <time>2021-04-20T10:51:24.089Z</time>
      </trkpt>
      <trkpt lat="46.77874" lon="6.76287">
        <ele>632.12</ele>
        <time>2021-04-20T10:51:26.152Z</time>
      </trkpt>
      <trkpt lat="46.77867" lon="6.76277">
        <ele>631.78</ele>
        <time>2021-04-20T10:51:28.853Z</time>
      </trkpt>
      <trkpt lat="46.77863" lon="6.7627">
        <ele>631.81</ele>
        <time>2021-04-20T10:51:35.647Z</time>
      </trkpt>
      <trkpt lat="46.77857" lon="6.76261">
        <ele>631.13</ele>
        <time>2021-04-20T10:51:37.609Z</time>
      </trkpt>
      <trkpt lat="46.77851" lon="6.76253">
        <ele>630.78</ele>
        <time>2021-04-20T10:51:39.677Z</time>
      </trkpt>
      <trkpt lat="46.77845" lon="6.76246">
        <ele>630.31</ele>
        <time>2021-04-20T10:51:41.352Z</time>
      </trkpt>
      <trkpt lat="46.77842" lon="6.76241">
        <ele>629.96</ele>
        <time>2021-04-20T10:51:42.391Z</time>
      </trkpt>
      <trkpt lat="46.77834" lon="6.76227">
        <ele>628.85</ele>
        <time>2021-04-20T10:51:45.239Z</time>
      </trkpt>
      <trkpt lat="46.77831" lon="6.76219">
        <ele>627.85</ele>
        <time>2021-04-20T10:51:46.665Z</time>
      </trkpt>
      <trkpt lat="46.7783" lon="6.76208">
        <ele>627.22</ele>
        <time>2021-04-20T10:51:48.398Z</time>
      </trkpt>
      <trkpt lat="46.77826" lon="6.76204">
        <ele>627.31</ele>
        <time>2021-04-20T10:51:54.475Z</time>
      </trkpt>
      <trkpt lat="46.77823" lon="6.76199">
        <ele>627.19</ele>
        <time>2021-04-20T10:51:55.845Z</time>
      </trkpt>
      <trkpt lat="46.77813" lon="6.7619">
        <ele>626.84</ele>
        <time>2021-04-20T10:51:59.253Z</time>
      </trkpt>
      <trkpt lat="46.778" lon="6.76182">
        <ele>626.08</ele>
        <time>2021-04-20T10:52:02.518Z</time>
      </trkpt>
      <trkpt lat="46.77788" lon="6.76175">
        <ele>626</ele>
        <time>2021-04-20T10:52:14.797Z</time>
      </trkpt>
      <trkpt lat="46.77774" lon="6.7617">
        <ele>626.23</ele>
        <time>2021-04-20T10:52:32.358Z</time>
      </trkpt>
      <trkpt lat="46.77762" lon="6.76164">
        <ele>626.47</ele>
        <time>2021-04-20T10:52:48.320Z</time>
      </trkpt>
      <trkpt lat="46.77755" lon="6.7616">
        <ele>626.19</ele>
        <time>2021-04-20T10:52:50.342Z</time>
      </trkpt>
      <trkpt lat="46.77749" lon="6.76158">
        <ele>625.99</ele>
        <time>2021-04-20T10:52:52.078Z</time>
      </trkpt>
      <trkpt lat="46.77745" lon="6.76158">
        <ele>626.08</ele>
        <time>2021-04-20T10:52:57.319Z</time>
      </trkpt>
      <trkpt lat="46.77741" lon="6.76161">
        <ele>626.38</ele>
        <time>2021-04-20T10:53:06.505Z</time>
      </trkpt>
      <trkpt lat="46.77735" lon="6.76167">
        <ele>627.14</ele>
        <time>2021-04-20T10:53:27.083Z</time>
      </trkpt>
      <trkpt lat="46.77727" lon="6.76179">
        <ele>628.63</ele>
        <time>2021-04-20T10:54:10.878Z</time>
      </trkpt>
      <trkpt lat="46.7772" lon="6.76188">
        <ele>629.6</ele>
        <time>2021-04-20T10:54:37.134Z</time>
      </trkpt>
      <trkpt lat="46.77715" lon="6.76196">
        <ele>630.37</ele>
        <time>2021-04-20T10:54:57.975Z</time>
      </trkpt>
      <trkpt lat="46.77714" lon="6.76206">
        <ele>631.71</ele>
        <time>2021-04-20T10:55:25.747Z</time>
      </trkpt>
      <trkpt lat="46.77711" lon="6.76213">
        <ele>632.42</ele>
        <time>2021-04-20T10:55:46.118Z</time>
      </trkpt>
      <trkpt lat="46.77702" lon="6.76236">
        <ele>634.96</ele>
        <time>2021-04-20T10:56:58.913Z</time>
      </trkpt>
      <trkpt lat="46.77698" lon="6.76249">
        <ele>636.47</ele>
        <time>2021-04-20T10:57:38.078Z</time>
      </trkpt>
      <trkpt lat="46.77697" lon="6.76258">
        <ele>637.67</ele>
        <time>2021-04-20T10:58:03.134Z</time>
      </trkpt>
      <trkpt lat="46.77698" lon="6.76264">
        <ele>638.86</ele>
        <time>2021-04-20T10:58:20.104Z</time>
      </trkpt>
      <trkpt lat="46.77698" lon="6.76268">
        <ele>639.27</ele>
        <time>2021-04-20T10:58:31.096Z</time>
      </trkpt>
      <trkpt lat="46.77696" lon="6.76276">
        <ele>640.35</ele>
        <time>2021-04-20T10:58:54.499Z</time>
      </trkpt>
      <trkpt lat="46.77695" lon="6.76285">
        <ele>642.12</ele>
        <time>2021-04-20T10:59:19.555Z</time>
      </trkpt>
      <trkpt lat="46.77691" lon="6.76296">
        <ele>643.38</ele>
        <time>2021-04-20T10:59:53.781Z</time>
      </trkpt>
      <trkpt lat="46.77691" lon="6.76298">
        <ele>643.48</ele>
        <time>2021-04-20T10:59:56.715Z</time>
      </trkpt>
      <trkpt lat="46.77684" lon="6.76309">
        <ele>644.49</ele>
        <time>2021-04-20T11:00:24.060Z</time>
      </trkpt>
      <trkpt lat="46.77677" lon="6.76326">
        <ele>646.26</ele>
        <time>2021-04-20T11:01:16.205Z</time>
      </trkpt>
      <trkpt lat="46.77673" lon="6.7634">
        <ele>647.27</ele>
        <time>2021-04-20T11:01:43.569Z</time>
      </trkpt>
      <trkpt lat="46.77671" lon="6.76348">
        <ele>649.29</ele>
        <time>2021-04-20T11:02:06.973Z</time>
      </trkpt>
      <trkpt lat="46.77668" lon="6.76358">
        <ele>650.8</ele>
        <time>2021-04-20T11:02:36.975Z</time>
      </trkpt>
      <trkpt lat="46.77664" lon="6.76364">
        <ele>651.56</ele>
        <time>2021-04-20T11:02:59.689Z</time>
      </trkpt>
      <trkpt lat="46.7766" lon="6.7637">
        <ele>652.51</ele>
        <time>2021-04-20T11:03:22.700Z</time>
      </trkpt>
      <trkpt lat="46.77654" lon="6.76385">
        <ele>652.35</ele>
        <time>2021-04-20T11:03:26.868Z</time>
      </trkpt>
      <trkpt lat="46.7765" lon="6.76392">
        <ele>652.28</ele>
        <time>2021-04-20T11:03:29.119Z</time>
      </trkpt>
      <trkpt lat="46.77644" lon="6.76402">
        <ele>652.81</ele>
        <time>2021-04-20T11:03:46.623Z</time>
      </trkpt>
      <trkpt lat="46.77637" lon="6.76411">
        <ele>653.08</ele>
        <time>2021-04-20T11:03:59.828Z</time>
      </trkpt>
      <trkpt lat="46.77632" lon="6.76422">
        <ele>654.09</ele>
        <time>2021-04-20T11:04:27.438Z</time>
      </trkpt>
      <trkpt lat="46.77627" lon="6.76436">
        <ele>655.85</ele>
        <time>2021-04-20T11:05:10.829Z</time>
      </trkpt>
      <trkpt lat="46.77624" lon="6.76449">
        <ele>656.8</ele>
        <time>2021-04-20T11:05:36.526Z</time>
      </trkpt>
      <trkpt lat="46.77623" lon="6.76461">
        <ele>657.55</ele>
        <time>2021-04-20T11:05:57.042Z</time>
      </trkpt>
      <trkpt lat="46.77623" lon="6.76476">
        <ele>658.83</ele>
        <time>2021-04-20T11:06:33.597Z</time>
      </trkpt>
      <trkpt lat="46.77624" lon="6.76502">
        <ele>661.09</ele>
        <time>2021-04-20T11:07:38.833Z</time>
      </trkpt>
      <trkpt lat="46.77626" lon="6.76526">
        <ele>663</ele>
        <time>2021-04-20T11:08:31.509Z</time>
      </trkpt>
      <trkpt lat="46.77628" lon="6.76534">
        <ele>663.95</ele>
        <time>2021-04-20T11:08:54.913Z</time>
      </trkpt>
      <trkpt lat="46.77629" lon="6.76541">
        <ele>664.91</ele>
        <time>2021-04-20T11:09:14.564Z</time>
      </trkpt>
      <trkpt lat="46.77628" lon="6.76548">
        <ele>665.7</ele>
        <time>2021-04-20T11:09:34.215Z</time>
      </trkpt>
      <trkpt lat="46.77625" lon="6.76553">
        <ele>666.16</ele>
        <time>2021-04-20T11:09:46.657Z</time>
      </trkpt>
      <trkpt lat="46.77618" lon="6.7656">
        <ele>667.34</ele>
        <time>2021-04-20T11:10:20.702Z</time>
      </trkpt>
      <trkpt lat="46.7761" lon="6.76571">
        <ele>668.72</ele>
        <time>2021-04-20T11:11:00.303Z</time>
      </trkpt>
      <trkpt lat="46.77602" lon="6.76583">
        <ele>669.42</ele>
        <time>2021-04-20T11:11:22.792Z</time>
      </trkpt>
      <trkpt lat="46.77599" lon="6.76588">
        <ele>669.62</ele>
        <time>2021-04-20T11:11:30.717Z</time>
      </trkpt>
      <trkpt lat="46.77597" lon="6.76593">
        <ele>669.86</ele>
        <time>2021-04-20T11:11:38.465Z</time>
      </trkpt>
      <trkpt lat="46.77596" lon="6.76604">
        <ele>670.46</ele>
        <time>2021-04-20T11:11:55.526Z</time>
      </trkpt>
      <trkpt lat="46.77596" lon="6.76618">
        <ele>671.26</ele>
        <time>2021-04-20T11:12:17.860Z</time>
      </trkpt>
      <trkpt lat="46.77598" lon="6.76631">
        <ele>671.84</ele>
        <time>2021-04-20T11:12:36.078Z</time>
      </trkpt>
      <trkpt lat="46.776" lon="6.76638">
        <ele>672.15</ele>
        <time>2021-04-20T11:12:46.167Z</time>
      </trkpt>
      <trkpt lat="46.77599" lon="6.76644">
        <ele>672.21</ele>
        <time>2021-04-20T11:12:51.224Z</time>
      </trkpt>
      <trkpt lat="46.77599" lon="6.76648">
        <ele>672.4</ele>
        <time>2021-04-20T11:12:56.931Z</time>
      </trkpt>
      <trkpt lat="46.77597" lon="6.76653">
        <ele>672.21</ele>
        <time>2021-04-20T11:12:57.897Z</time>
      </trkpt>
      <trkpt lat="46.77593" lon="6.76656">
        <ele>670.97</ele>
        <time>2021-04-20T11:12:58.923Z</time>
      </trkpt>
      <trkpt lat="46.77592" lon="6.76661">
        <ele>670</ele>
        <time>2021-04-20T11:12:59.737Z</time>
      </trkpt>
      <trkpt lat="46.7759" lon="6.76671">
        <ele>667.38</ele>
        <time>2021-04-20T11:13:01.364Z</time>
      </trkpt>
      <trkpt lat="46.77587" lon="6.76682">
        <ele>666.03</ele>
        <time>2021-04-20T11:13:03.215Z</time>
      </trkpt>
      <trkpt lat="46.77572" lon="6.76705">
        <ele>662.72</ele>
        <time>2021-04-20T11:13:08.177Z</time>
      </trkpt>
      <trkpt lat="46.77571" lon="6.76707">
        <ele>662.55</ele>
        <time>2021-04-20T11:13:08.564Z</time>
      </trkpt>
      <trkpt lat="46.77572" lon="6.76714">
        <ele>662.71</ele>
        <time>2021-04-20T11:13:15.835Z</time>
      </trkpt>
      <trkpt lat="46.77573" lon="6.76723">
        <ele>663.12</ele>
        <time>2021-04-20T11:13:28.492Z</time>
      </trkpt>
      <trkpt lat="46.77576" lon="6.76736">
        <ele>663.66</ele>
        <time>2021-04-20T11:13:46.463Z</time>
      </trkpt>
      <trkpt lat="46.77577" lon="6.76751">
        <ele>663.85</ele>
        <time>2021-04-20T11:13:59.378Z</time>
      </trkpt>
      <trkpt lat="46.77578" lon="6.76763">
        <ele>663.88</ele>
        <time>2021-04-20T11:14:08.287Z</time>
      </trkpt>
      <trkpt lat="46.77577" lon="6.7677">
        <ele>663.86</ele>
        <time>2021-04-20T11:14:13.081Z</time>
      </trkpt>
      <trkpt lat="46.77575" lon="6.76777">
        <ele>663.82</ele>
        <time>2021-04-20T11:14:15.045Z</time>
      </trkpt>
      <trkpt lat="46.77572" lon="6.76781">
        <ele>663.77</ele>
        <time>2021-04-20T11:14:16.489Z</time>
      </trkpt>
      <trkpt lat="46.7757" lon="6.76783">
        <ele>663.58</ele>
        <time>2021-04-20T11:14:17.042Z</time>
      </trkpt>
      <trkpt lat="46.77544" lon="6.76803">
        <ele>661.61</ele>
        <time>2021-04-20T11:14:23.747Z</time>
      </trkpt>
      <trkpt lat="46.77531" lon="6.76811">
        <ele>659.75</ele>
        <time>2021-04-20T11:14:26.965Z</time>
      </trkpt>
      <trkpt lat="46.77525" lon="6.76814">
        <ele>658.87</ele>
        <time>2021-04-20T11:14:28.412Z</time>
      </trkpt>
      <trkpt lat="46.77522" lon="6.76818">
        <ele>658.33</ele>
        <time>2021-04-20T11:14:29.339Z</time>
      </trkpt>
      <trkpt lat="46.77518" lon="6.76824">
        <ele>657.84</ele>
        <time>2021-04-20T11:14:30.648Z</time>
      </trkpt>
      <trkpt lat="46.77515" lon="6.76833">
        <ele>656.69</ele>
        <time>2021-04-20T11:14:32.212Z</time>
      </trkpt>
      <trkpt lat="46.77514" lon="6.76844">
        <ele>655.35</ele>
        <time>2021-04-20T11:14:33.946Z</time>
      </trkpt>
      <trkpt lat="46.77514" lon="6.76854">
        <ele>654.33</ele>
        <time>2021-04-20T11:14:35.508Z</time>
      </trkpt>
      <trkpt lat="46.77515" lon="6.7687">
        <ele>652.68</ele>
        <time>2021-04-20T11:14:38.019Z</time>
      </trkpt>
      <trkpt lat="46.77516" lon="6.76882">
        <ele>651.39</ele>
        <time>2021-04-20T11:14:39.908Z</time>
      </trkpt>
      <trkpt lat="46.77516" lon="6.76887">
        <ele>650.85</ele>
        <time>2021-04-20T11:14:40.689Z</time>
      </trkpt>
      <trkpt lat="46.77511" lon="6.76907">
        <ele>647.57</ele>
        <time>2021-04-20T11:14:44.016Z</time>
      </trkpt>
      <trkpt lat="46.77507" lon="6.76937">
        <ele>643.55</ele>
        <time>2021-04-20T11:14:48.791Z</time>
      </trkpt>
      <trkpt lat="46.77504" lon="6.76968">
        <ele>639.52</ele>
        <time>2021-04-20T11:14:53.684Z</time>
      </trkpt>
      <trkpt lat="46.77502" lon="6.76987">
        <ele>637.1</ele>
        <time>2021-04-20T11:14:56.687Z</time>
      </trkpt>
      <trkpt lat="46.77501" lon="6.76999">
        <ele>635.87</ele>
        <time>2021-04-20T11:14:58.576Z</time>
      </trkpt>
      <trkpt lat="46.775" lon="6.77011">
        <ele>634.86</ele>
        <time>2021-04-20T11:15:00.465Z</time>
      </trkpt>
      <trkpt lat="46.775" lon="6.77025">
        <ele>633.79</ele>
        <time>2021-04-20T11:15:02.653Z</time>
      </trkpt>
      <trkpt lat="46.77501" lon="6.77035">
        <ele>633.17</ele>
        <time>2021-04-20T11:15:04.232Z</time>
      </trkpt>
      <trkpt lat="46.77502" lon="6.77044">
        <ele>632.98</ele>
        <time>2021-04-20T11:15:06.031Z</time>
      </trkpt>
      <trkpt lat="46.77505" lon="6.77054">
        <ele>633.18</ele>
        <time>2021-04-20T11:15:16.334Z</time>
      </trkpt>
      <trkpt lat="46.7751" lon="6.77072">
        <ele>633.69</ele>
        <time>2021-04-20T11:15:37.664Z</time>
      </trkpt>
      <trkpt lat="46.77515" lon="6.77092">
        <ele>634.04</ele>
        <time>2021-04-20T11:15:57.108Z</time>
      </trkpt>
      <trkpt lat="46.7752" lon="6.77113">
        <ele>634.02</ele>
        <time>2021-04-20T11:16:12.636Z</time>
      </trkpt>
      <trkpt lat="46.77532" lon="6.77153">
        <ele>634</ele>
        <time>2021-04-20T11:16:43.434Z</time>
      </trkpt>
      <trkpt lat="46.77536" lon="6.77166">
        <ele>633.62</ele>
        <time>2021-04-20T11:16:46.018Z</time>
      </trkpt>
      <trkpt lat="46.77541" lon="6.77178">
        <ele>634</ele>
        <time>2021-04-20T11:17:01.699Z</time>
      </trkpt>
      <trkpt lat="46.77563" lon="6.77218">
        <ele>633.71</ele>
        <time>2021-04-20T11:17:14.878Z</time>
      </trkpt>
      <trkpt lat="46.7757" lon="6.77232">
        <ele>633.69</ele>
        <time>2021-04-20T11:17:26.917Z</time>
      </trkpt>
      <trkpt lat="46.77578" lon="6.77247">
        <ele>633.78</ele>
        <time>2021-04-20T11:17:41.378Z</time>
      </trkpt>
      <trkpt lat="46.77583" lon="6.77257">
        <ele>633.62</ele>
        <time>2021-04-20T11:17:44.158Z</time>
      </trkpt>
      <trkpt lat="46.77594" lon="6.77279">
        <ele>633.4</ele>
        <time>2021-04-20T11:17:50.833Z</time>
      </trkpt>
      <trkpt lat="46.77604" lon="6.77299">
        <ele>633.32</ele>
        <time>2021-04-20T11:18:07.287Z</time>
      </trkpt>
      <trkpt lat="46.77613" lon="6.77315">
        <ele>633.82</ele>
        <time>2021-04-20T11:18:29.076Z</time>
      </trkpt>
      <trkpt lat="46.7762" lon="6.77327">
        <ele>634.37</ele>
        <time>2021-04-20T11:18:48.837Z</time>
      </trkpt>
      <trkpt lat="46.77631" lon="6.77341">
        <ele>635.13</ele>
        <time>2021-04-20T11:19:15.748Z</time>
      </trkpt>
      <trkpt lat="46.77653" lon="6.77364">
        <ele>636.9</ele>
        <time>2021-04-20T11:20:10.498Z</time>
      </trkpt>
      <trkpt lat="46.77685" lon="6.77399">
        <ele>639.33</ele>
        <time>2021-04-20T11:21:28.754Z</time>
      </trkpt>
      <trkpt lat="46.77717" lon="6.77434">
        <ele>642.11</ele>
        <time>2021-04-20T11:22:52.157Z</time>
      </trkpt>
      <trkpt lat="46.77738" lon="6.77456">
        <ele>643.52</ele>
        <time>2021-04-20T11:23:40.619Z</time>
      </trkpt>
      <trkpt lat="46.77755" lon="6.77474">
        <ele>644.69</ele>
        <time>2021-04-20T11:24:20.304Z</time>
      </trkpt>
      <trkpt lat="46.77759" lon="6.77478">
        <ele>644.82</ele>
        <time>2021-04-20T11:24:26.990Z</time>
      </trkpt>
      <trkpt lat="46.77764" lon="6.77483">
        <ele>645.57</ele>
        <time>2021-04-20T11:24:48.324Z</time>
      </trkpt>
      <trkpt lat="46.77759" lon="6.77488">
        <ele>645.12</ele>
        <time>2021-04-20T11:24:49.707Z</time>
      </trkpt>
      <trkpt lat="46.77744" lon="6.77498">
        <ele>643.42</ele>
        <time>2021-04-20T11:24:53.469Z</time>
      </trkpt>
      <trkpt lat="46.77739" lon="6.77501">
        <ele>643.03</ele>
        <time>2021-04-20T11:24:54.703Z</time>
      </trkpt>
      <trkpt lat="46.77723" lon="6.77512">
        <ele>641.74</ele>
        <time>2021-04-20T11:24:58.737Z</time>
      </trkpt>
      <trkpt lat="46.77704" lon="6.77524">
        <ele>640.01</ele>
        <time>2021-04-20T11:25:03.461Z</time>
      </trkpt>
      <trkpt lat="46.77685" lon="6.77537">
        <ele>638.19</ele>
        <time>2021-04-20T11:25:08.248Z</time>
      </trkpt>
      <trkpt lat="46.77678" lon="6.77541">
        <ele>637.58</ele>
        <time>2021-04-20T11:25:09.963Z</time>
      </trkpt>
      <trkpt lat="46.77668" lon="6.77548">
        <ele>636.7</ele>
        <time>2021-04-20T11:25:12.493Z</time>
      </trkpt>
      <trkpt lat="46.77643" lon="6.77565">
        <ele>634.54</ele>
        <time>2021-04-20T11:25:18.785Z</time>
      </trkpt>
      <trkpt lat="46.77622" lon="6.77578">
        <ele>632.59</ele>
        <time>2021-04-20T11:25:23.989Z</time>
      </trkpt>
      <trkpt lat="46.77615" lon="6.77583">
        <ele>631.89</ele>
        <time>2021-04-20T11:25:25.767Z</time>
      </trkpt>
      <trkpt lat="46.77608" lon="6.77587">
        <ele>631.2</ele>
        <time>2021-04-20T11:25:27.482Z</time>
      </trkpt>
      <trkpt lat="46.77598" lon="6.77592">
        <ele>630.56</ele>
        <time>2021-04-20T11:25:29.799Z</time>
      </trkpt>
      <trkpt lat="46.77592" lon="6.7756">
        <ele>626.81</ele>
        <time>2021-04-20T11:25:34.983Z</time>
      </trkpt>
      <trkpt lat="46.77589" lon="6.77544">
        <ele>625.2</ele>
        <time>2021-04-20T11:25:37.575Z</time>
      </trkpt>
      <trkpt lat="46.77586" lon="6.77533">
        <ele>624.28</ele>
        <time>2021-04-20T11:25:39.425Z</time>
      </trkpt>
      <trkpt lat="46.77583" lon="6.77522">
        <ele>622.87</ele>
        <time>2021-04-20T11:25:41.275Z</time>
      </trkpt>
      <trkpt lat="46.77579" lon="6.77513">
        <ele>621.97</ele>
        <time>2021-04-20T11:25:42.952Z</time>
      </trkpt>
      <trkpt lat="46.77576" lon="6.77505">
        <ele>620.93</ele>
        <time>2021-04-20T11:25:44.377Z</time>
      </trkpt>
      <trkpt lat="46.77571" lon="6.77497">
        <ele>619.96</ele>
        <time>2021-04-20T11:25:46.069Z</time>
      </trkpt>
      <trkpt lat="46.77568" lon="6.77491">
        <ele>619.09</ele>
        <time>2021-04-20T11:25:47.230Z</time>
      </trkpt>
      <trkpt lat="46.77562" lon="6.77484">
        <ele>617.95</ele>
        <time>2021-04-20T11:25:48.982Z</time>
      </trkpt>
      <trkpt lat="46.77558" lon="6.7748">
        <ele>617.06</ele>
        <time>2021-04-20T11:25:50.089Z</time>
      </trkpt>
      <trkpt lat="46.77553" lon="6.77476">
        <ele>616.23</ele>
        <time>2021-04-20T11:25:51.389Z</time>
      </trkpt>
      <trkpt lat="46.77549" lon="6.77474">
        <ele>615.65</ele>
        <time>2021-04-20T11:25:52.354Z</time>
      </trkpt>
      <trkpt lat="46.77545" lon="6.77472">
        <ele>615.02</ele>
        <time>2021-04-20T11:25:53.319Z</time>
      </trkpt>
      <trkpt lat="46.77537" lon="6.77471">
        <ele>614.33</ele>
        <time>2021-04-20T11:25:55.151Z</time>
      </trkpt>
      <trkpt lat="46.77524" lon="6.77471">
        <ele>612.97</ele>
        <time>2021-04-20T11:25:58.117Z</time>
      </trkpt>
      <trkpt lat="46.77508" lon="6.77469">
        <ele>610.77</ele>
        <time>2021-04-20T11:26:01.781Z</time>
      </trkpt>
      <trkpt lat="46.77488" lon="6.77469">
        <ele>608.21</ele>
        <time>2021-04-20T11:26:06.344Z</time>
      </trkpt>
      <trkpt lat="46.77485" lon="6.77468">
        <ele>607.75</ele>
        <time>2021-04-20T11:26:07.046Z</time>
      </trkpt>
      <trkpt lat="46.77482" lon="6.77466">
        <ele>607.36</ele>
        <time>2021-04-20T11:26:07.798Z</time>
      </trkpt>
      <trkpt lat="46.77479" lon="6.77464">
        <ele>607.14</ele>
        <time>2021-04-20T11:26:08.487Z</time>
      </trkpt>
      <trkpt lat="46.77476" lon="6.7746">
        <ele>606.86</ele>
        <time>2021-04-20T11:26:09.414Z</time>
      </trkpt>
      <trkpt lat="46.77474" lon="6.77457">
        <ele>606.42</ele>
        <time>2021-04-20T11:26:10.068Z</time>
      </trkpt>
      <trkpt lat="46.77459" lon="6.77429">
        <ele>605.9</ele>
        <time>2021-04-20T11:26:17.819Z</time>
      </trkpt>
      <trkpt lat="46.77458" lon="6.77426">
        <ele>606.42</ele>
        <time>2021-04-20T11:26:26.988Z</time>
      </trkpt>
      <trkpt lat="46.77458" lon="6.77423">
        <ele>606.59</ele>
        <time>2021-04-20T11:26:31.746Z</time>
      </trkpt>
      <trkpt lat="46.77458" lon="6.77415">
        <ele>607.42</ele>
        <time>2021-04-20T11:26:53.732Z</time>
      </trkpt>
      <trkpt lat="46.77458" lon="6.7741">
        <ele>607.81</ele>
        <time>2021-04-20T11:27:04.446Z</time>
      </trkpt>
      <trkpt lat="46.77458" lon="6.77404">
        <ele>608.17</ele>
        <time>2021-04-20T11:27:14.365Z</time>
      </trkpt>
      <trkpt lat="46.77456" lon="6.77397">
        <ele>608.68</ele>
        <time>2021-04-20T11:27:28.173Z</time>
      </trkpt>
      <trkpt lat="46.77454" lon="6.77388">
        <ele>609.55</ele>
        <time>2021-04-20T11:27:54.177Z</time>
      </trkpt>
      <trkpt lat="46.77451" lon="6.77379">
        <ele>610.52</ele>
        <time>2021-04-20T11:28:21.684Z</time>
      </trkpt>
      <trkpt lat="46.77448" lon="6.77371">
        <ele>611.49</ele>
        <time>2021-04-20T11:28:46.750Z</time>
      </trkpt>
      <trkpt lat="46.77441" lon="6.77352">
        <ele>613.81</ele>
        <time>2021-04-20T11:29:46.041Z</time>
      </trkpt>
      <trkpt lat="46.77435" lon="6.77331">
        <ele>617.15</ele>
        <time>2021-04-20T11:30:48.574Z</time>
      </trkpt>
      <trkpt lat="46.7743" lon="6.77319">
        <ele>618.66</ele>
        <time>2021-04-20T11:31:27.176Z</time>
      </trkpt>
      <trkpt lat="46.77422" lon="6.77307">
        <ele>621</ele>
        <time>2021-04-20T11:32:13.199Z</time>
      </trkpt>
      <trkpt lat="46.77419" lon="6.77301">
        <ele>622.01</ele>
        <time>2021-04-20T11:32:33.615Z</time>
      </trkpt>
      <trkpt lat="46.77418" lon="6.77295">
        <ele>622.33</ele>
        <time>2021-04-20T11:32:42.863Z</time>
      </trkpt>
      <trkpt lat="46.77416" lon="6.77289">
        <ele>622.58</ele>
        <time>2021-04-20T11:32:51.441Z</time>
      </trkpt>
      <trkpt lat="46.77413" lon="6.77276">
        <ele>621.85</ele>
        <time>2021-04-20T11:32:53.584Z</time>
      </trkpt>
      <trkpt lat="46.77407" lon="6.77248">
        <ele>620.44</ele>
        <time>2021-04-20T11:32:58.169Z</time>
      </trkpt>
      <trkpt lat="46.77403" lon="6.77234">
        <ele>618.81</ele>
        <time>2021-04-20T11:33:00.539Z</time>
      </trkpt>
      <trkpt lat="46.77402" lon="6.77225">
        <ele>618.69</ele>
        <time>2021-04-20T11:33:02.577Z</time>
      </trkpt>
      <trkpt lat="46.77402" lon="6.77216">
        <ele>618.29</ele>
        <time>2021-04-20T11:33:03.883Z</time>
      </trkpt>
      <trkpt lat="46.77402" lon="6.77201">
        <ele>616.82</ele>
        <time>2021-04-20T11:33:06.227Z</time>
      </trkpt>
      <trkpt lat="46.77402" lon="6.77194">
        <ele>615.91</ele>
        <time>2021-04-20T11:33:07.321Z</time>
      </trkpt>
      <trkpt lat="46.77402" lon="6.77178">
        <ele>613.95</ele>
        <time>2021-04-20T11:33:09.821Z</time>
      </trkpt>
      <trkpt lat="46.774" lon="6.77163">
        <ele>612.2</ele>
        <time>2021-04-20T11:33:12.209Z</time>
      </trkpt>
      <trkpt lat="46.77399" lon="6.77153">
        <ele>611.59</ele>
        <time>2021-04-20T11:33:13.788Z</time>
      </trkpt>
      <trkpt lat="46.77396" lon="6.77136">
        <ele>611.16</ele>
        <time>2021-04-20T11:33:17.070Z</time>
      </trkpt>
      <trkpt lat="46.77391" lon="6.77119">
        <ele>610.42</ele>
        <time>2021-04-20T11:33:19.895Z</time>
      </trkpt>
      <trkpt lat="46.77386" lon="6.77105">
        <ele>610.33</ele>
        <time>2021-04-20T11:33:23.948Z</time>
      </trkpt>
      <trkpt lat="46.77379" lon="6.77092">
        <ele>610.62</ele>
        <time>2021-04-20T11:33:39.340Z</time>
      </trkpt>
      <trkpt lat="46.77373" lon="6.77082">
        <ele>611.14</ele>
        <time>2021-04-20T11:33:56.713Z</time>
      </trkpt>
      <trkpt lat="46.77368" lon="6.77074">
        <ele>611.5</ele>
        <time>2021-04-20T11:34:10.077Z</time>
      </trkpt>
      <trkpt lat="46.77366" lon="6.77066">
        <ele>611.63</ele>
        <time>2021-04-20T11:34:17.702Z</time>
      </trkpt>
      <trkpt lat="46.77364" lon="6.77053">
        <ele>611.95</ele>
        <time>2021-04-20T11:34:31.688Z</time>
      </trkpt>
      <trkpt lat="46.77361" lon="6.77035">
        <ele>611.53</ele>
        <time>2021-04-20T11:34:35.244Z</time>
      </trkpt>
      <trkpt lat="46.77357" lon="6.77016">
        <ele>610.99</ele>
        <time>2021-04-20T11:34:38.822Z</time>
      </trkpt>
      <trkpt lat="46.77355" lon="6.77004">
        <ele>610.33</ele>
        <time>2021-04-20T11:34:40.752Z</time>
      </trkpt>
      <trkpt lat="46.7735" lon="6.76989">
        <ele>609.56</ele>
        <time>2021-04-20T11:34:43.359Z</time>
      </trkpt>
      <trkpt lat="46.77343" lon="6.76967">
        <ele>609.38</ele>
        <time>2021-04-20T11:34:49.379Z</time>
      </trkpt>
      <trkpt lat="46.77337" lon="6.7695">
        <ele>610.18</ele>
        <time>2021-04-20T11:35:15.070Z</time>
      </trkpt>
      <trkpt lat="46.77332" lon="6.76939">
        <ele>610.92</ele>
        <time>2021-04-20T11:35:35.854Z</time>
      </trkpt>
      <trkpt lat="46.77325" lon="6.76929">
        <ele>611.88</ele>
        <time>2021-04-20T11:36:01.849Z</time>
      </trkpt>
      <trkpt lat="46.77319" lon="6.76917">
        <ele>612.67</ele>
        <time>2021-04-20T11:36:24.452Z</time>
      </trkpt>
      <trkpt lat="46.77312" lon="6.76904">
        <ele>613.05</ele>
        <time>2021-04-20T11:36:41.462Z</time>
      </trkpt>
      <trkpt lat="46.77309" lon="6.76898">
        <ele>613.16</ele>
        <time>2021-04-20T11:36:48.062Z</time>
      </trkpt>
      <trkpt lat="46.77308" lon="6.76892">
        <ele>613.29</ele>
        <time>2021-04-20T11:36:54.187Z</time>
      </trkpt>
      <trkpt lat="46.77307" lon="6.76877">
        <ele>613.92</ele>
        <time>2021-04-20T11:37:14.426Z</time>
      </trkpt>
      <trkpt lat="46.77307" lon="6.76867">
        <ele>614.59</ele>
        <time>2021-04-20T11:37:32.571Z</time>
      </trkpt>
      <trkpt lat="46.77306" lon="6.7686">
        <ele>615.31</ele>
        <time>2021-04-20T11:37:52.223Z</time>
      </trkpt>
      <trkpt lat="46.77304" lon="6.76848">
        <ele>616.39</ele>
        <time>2021-04-20T11:38:23.559Z</time>
      </trkpt>
      <trkpt lat="46.77298" lon="6.76824">
        <ele>618.59</ele>
        <time>2021-04-20T11:39:26.737Z</time>
      </trkpt>
      <trkpt lat="46.77294" lon="6.76801">
        <ele>619.53</ele>
        <time>2021-04-20T11:39:57.902Z</time>
      </trkpt>
      <trkpt lat="46.7729" lon="6.76791">
        <ele>620.11</ele>
        <time>2021-04-20T11:40:14.906Z</time>
      </trkpt>
      <trkpt lat="46.77286" lon="6.76781">
        <ele>620.78</ele>
        <time>2021-04-20T11:40:33.544Z</time>
      </trkpt>
      <trkpt lat="46.7728" lon="6.76769">
        <ele>621.65</ele>
        <time>2021-04-20T11:40:57.665Z</time>
      </trkpt>
      <trkpt lat="46.77272" lon="6.76759">
        <ele>622.59</ele>
        <time>2021-04-20T11:41:23.456Z</time>
      </trkpt>
      <trkpt lat="46.77269" lon="6.76753">
        <ele>623.07</ele>
        <time>2021-04-20T11:41:36.501Z</time>
      </trkpt>
      <trkpt lat="46.77266" lon="6.76748">
        <ele>623.34</ele>
        <time>2021-04-20T11:41:45.321Z</time>
      </trkpt>
      <trkpt lat="46.77264" lon="6.76742">
        <ele>623.64</ele>
        <time>2021-04-20T11:41:54.584Z</time>
      </trkpt>
      <trkpt lat="46.77262" lon="6.76735">
        <ele>623.97</ele>
        <time>2021-04-20T11:42:04.952Z</time>
      </trkpt>
      <trkpt lat="46.77261" lon="6.76726">
        <ele>624.67</ele>
        <time>2021-04-20T11:42:24.104Z</time>
      </trkpt>
      <trkpt lat="46.77261" lon="6.76716">
        <ele>625.53</ele>
        <time>2021-04-20T11:42:48.781Z</time>
      </trkpt>
      <trkpt lat="46.77261" lon="6.76708">
        <ele>625.91</ele>
        <time>2021-04-20T11:43:00.195Z</time>
      </trkpt>
      <trkpt lat="46.77261" lon="6.76699">
        <ele>626.81</ele>
        <time>2021-04-20T11:43:24.930Z</time>
      </trkpt>
      <trkpt lat="46.77261" lon="6.76691">
        <ele>627.2</ele>
        <time>2021-04-20T11:43:36.503Z</time>
      </trkpt>
      <trkpt lat="46.7726" lon="6.76682">
        <ele>627.88</ele>
        <time>2021-04-20T11:43:55.000Z</time>
      </trkpt>
      <trkpt lat="46.77258" lon="6.76675">
        <ele>628.61</ele>
        <time>2021-04-20T11:44:15.845Z</time>
      </trkpt>
      <trkpt lat="46.77254" lon="6.76665">
        <ele>629.56</ele>
        <time>2021-04-20T11:44:42.424Z</time>
      </trkpt>
      <trkpt lat="46.77245" lon="6.76638">
        <ele>631.81</ele>
        <time>2021-04-20T11:45:43.676Z</time>
      </trkpt>
      <trkpt lat="46.7724" lon="6.76625">
        <ele>632.87</ele>
        <time>2021-04-20T11:46:12.366Z</time>
      </trkpt>
      <trkpt lat="46.77237" lon="6.7662">
        <ele>633.38</ele>
        <time>2021-04-20T11:46:26.317Z</time>
      </trkpt>
      <trkpt lat="46.77233" lon="6.76614">
        <ele>633.96</ele>
        <time>2021-04-20T11:46:42.005Z</time>
      </trkpt>
      <trkpt lat="46.77228" lon="6.76609">
        <ele>634.56</ele>
        <time>2021-04-20T11:46:58.243Z</time>
      </trkpt>
      <trkpt lat="46.77222" lon="6.76604">
        <ele>635.28</ele>
        <time>2021-04-20T11:47:17.735Z</time>
      </trkpt>
      <trkpt lat="46.77217" lon="6.76599">
        <ele>635.87</ele>
        <time>2021-04-20T11:47:33.718Z</time>
      </trkpt>
      <trkpt lat="46.77205" lon="6.7659">
        <ele>636.97</ele>
        <time>2021-04-20T11:48:04.651Z</time>
      </trkpt>
      <trkpt lat="46.77198" lon="6.76584">
        <ele>637.69</ele>
        <time>2021-04-20T11:48:24.432Z</time>
      </trkpt>
      <trkpt lat="46.77182" lon="6.76569">
        <ele>638.6</ele>
        <time>2021-04-20T11:48:58.542Z</time>
      </trkpt>
      <trkpt lat="46.77178" lon="6.76564">
        <ele>638.67</ele>
        <time>2021-04-20T11:49:04.780Z</time>
      </trkpt>
      <trkpt lat="46.77173" lon="6.7656">
        <ele>638.71</ele>
        <time>2021-04-20T11:49:11.119Z</time>
      </trkpt>
      <trkpt lat="46.7717" lon="6.76559">
        <ele>638.71</ele>
        <time>2021-04-20T11:49:14.320Z</time>
      </trkpt>
      <trkpt lat="46.77167" lon="6.76558">
        <ele>638.82</ele>
        <time>2021-04-20T11:49:19.080Z</time>
      </trkpt>
      <trkpt lat="46.77165" lon="6.76558">
        <ele>638.92</ele>
        <time>2021-04-20T11:49:22.718Z</time>
      </trkpt>
      <trkpt lat="46.77162" lon="6.76558">
        <ele>638.92</ele>
        <time>2021-04-20T11:49:25.839Z</time>
      </trkpt>
      <trkpt lat="46.77158" lon="6.7656">
        <ele>638.71</ele>
        <time>2021-04-20T11:49:26.853Z</time>
      </trkpt>
      <trkpt lat="46.77156" lon="6.76553">
        <ele>638.5</ele>
        <time>2021-04-20T11:49:28.209Z</time>
      </trkpt>
      <trkpt lat="46.77152" lon="6.76543">
        <ele>638.15</ele>
        <time>2021-04-20T11:49:30.208Z</time>
      </trkpt>
      <trkpt lat="46.77148" lon="6.76535">
        <ele>637.9</ele>
        <time>2021-04-20T11:49:32.040Z</time>
      </trkpt>
      <trkpt lat="46.77142" lon="6.76524">
        <ele>637.62</ele>
        <time>2021-04-20T11:49:34.855Z</time>
      </trkpt>
      <trkpt lat="46.77135" lon="6.76512">
        <ele>637.34</ele>
        <time>2021-04-20T11:49:38.120Z</time>
      </trkpt>
      <trkpt lat="46.77128" lon="6.76499">
        <ele>637.14</ele>
        <time>2021-04-20T11:49:41.886Z</time>
      </trkpt>
      <trkpt lat="46.77108" lon="6.76464">
        <ele>636.8</ele>
        <time>2021-04-20T11:49:53.190Z</time>
      </trkpt>
      <trkpt lat="46.77098" lon="6.76446">
        <ele>636.71</ele>
        <time>2021-04-20T11:50:08.385Z</time>
      </trkpt>
      <trkpt lat="46.77089" lon="6.76429">
        <ele>636.74</ele>
        <time>2021-04-20T11:50:23.986Z</time>
      </trkpt>
      <trkpt lat="46.77092" lon="6.76426">
        <ele>636.65</ele>
        <time>2021-04-20T11:50:25.100Z</time>
      </trkpt>
      <trkpt lat="46.77096" lon="6.76423">
        <ele>636.37</ele>
        <time>2021-04-20T11:50:26.072Z</time>
      </trkpt>
      <trkpt lat="46.77101" lon="6.7642">
        <ele>636</ele>
        <time>2021-04-20T11:50:27.306Z</time>
      </trkpt>
      <trkpt lat="46.77106" lon="6.76418">
        <ele>635.61</ele>
        <time>2021-04-20T11:50:28.489Z</time>
      </trkpt>
      <trkpt lat="46.77112" lon="6.76417">
        <ele>635.31</ele>
        <time>2021-04-20T11:50:29.937Z</time>
      </trkpt>
      <trkpt lat="46.7712" lon="6.76415">
        <ele>634.88</ele>
        <time>2021-04-20T11:50:31.830Z</time>
      </trkpt>
      <trkpt lat="46.77123" lon="6.76413">
        <ele>634.74</ele>
        <time>2021-04-20T11:50:32.675Z</time>
      </trkpt>
      <trkpt lat="46.77126" lon="6.7641">
        <ele>634.61</ele>
        <time>2021-04-20T11:50:33.667Z</time>
      </trkpt>
      <trkpt lat="46.7713" lon="6.76407">
        <ele>634.42</ele>
        <time>2021-04-20T11:50:34.821Z</time>
      </trkpt>
      <trkpt lat="46.77141" lon="6.76395">
        <ele>633.74</ele>
        <time>2021-04-20T11:50:38.119Z</time>
      </trkpt>
      <trkpt lat="46.77143" lon="6.76393">
        <ele>633.58</ele>
        <time>2021-04-20T11:50:38.628Z</time>
      </trkpt>
      <trkpt lat="46.77145" lon="6.76388">
        <ele>633.26</ele>
        <time>2021-04-20T11:50:39.533Z</time>
      </trkpt>
      <trkpt lat="46.77147" lon="6.7638">
        <ele>632.92</ele>
        <time>2021-04-20T11:50:40.835Z</time>
      </trkpt>
      <trkpt lat="46.77155" lon="6.7636">
        <ele>631.64</ele>
        <time>2021-04-20T11:50:44.454Z</time>
      </trkpt>
      <trkpt lat="46.77159" lon="6.76351">
        <ele>631.29</ele>
        <time>2021-04-20T11:50:46.249Z</time>
      </trkpt>
      <trkpt lat="46.77163" lon="6.76343">
        <ele>631.13</ele>
        <time>2021-04-20T11:50:48.355Z</time>
      </trkpt>
      <trkpt lat="46.77167" lon="6.76337">
        <ele>630.77</ele>
        <time>2021-04-20T11:50:49.590Z</time>
      </trkpt>
      <trkpt lat="46.77174" lon="6.76328">
        <ele>630.6</ele>
        <time>2021-04-20T11:50:52.670Z</time>
      </trkpt>
      <trkpt lat="46.77179" lon="6.76322">
        <ele>630.38</ele>
        <time>2021-04-20T11:50:54.469Z</time>
      </trkpt>
      <trkpt lat="46.77185" lon="6.76316">
        <ele>630.3</ele>
        <time>2021-04-20T11:50:57.098Z</time>
      </trkpt>
      <trkpt lat="46.77191" lon="6.7631">
        <ele>630</ele>
        <time>2021-04-20T11:50:58.981Z</time>
      </trkpt>
      <trkpt lat="46.77195" lon="6.76306">
        <ele>629.9</ele>
        <time>2021-04-20T11:51:00.537Z</time>
      </trkpt>
      <trkpt lat="46.772" lon="6.76304">
        <ele>629.85</ele>
        <time>2021-04-20T11:51:02.446Z</time>
      </trkpt>
      <trkpt lat="46.77203" lon="6.76302">
        <ele>629.76</ele>
        <time>2021-04-20T11:51:03.428Z</time>
      </trkpt>
      <trkpt lat="46.77207" lon="6.76301">
        <ele>629.71</ele>
        <time>2021-04-20T11:51:04.871Z</time>
      </trkpt>
      <trkpt lat="46.77212" lon="6.763">
        <ele>629.65</ele>
        <time>2021-04-20T11:51:06.674Z</time>
      </trkpt>
      <trkpt lat="46.77218" lon="6.763">
        <ele>629.63</ele>
        <time>2021-04-20T11:51:12.613Z</time>
      </trkpt>
      <trkpt lat="46.77237" lon="6.76301">
        <ele>629.12</ele>
        <time>2021-04-20T11:51:18.306Z</time>
      </trkpt>
      <trkpt lat="46.77243" lon="6.76301">
        <ele>628.77</ele>
        <time>2021-04-20T11:51:19.645Z</time>
      </trkpt>
      <trkpt lat="46.77249" lon="6.763">
        <ele>628.84</ele>
        <time>2021-04-20T11:51:26.674Z</time>
      </trkpt>
      <trkpt lat="46.77255" lon="6.76297">
        <ele>628.64</ele>
        <time>2021-04-20T11:51:28.480Z</time>
      </trkpt>
      <trkpt lat="46.77283" lon="6.76282">
        <ele>626.5</ele>
        <time>2021-04-20T11:51:35.285Z</time>
      </trkpt>
      <trkpt lat="46.77296" lon="6.76275">
        <ele>625.52</ele>
        <time>2021-04-20T11:51:38.446Z</time>
      </trkpt>
      <trkpt lat="46.77306" lon="6.7627">
        <ele>624.73</ele>
        <time>2021-04-20T11:51:40.858Z</time>
      </trkpt>
      <trkpt lat="46.7732" lon="6.76263">
        <ele>623.42</ele>
        <time>2021-04-20T11:51:44.234Z</time>
      </trkpt>
      <trkpt lat="46.77333" lon="6.76258">
        <ele>621.34</ele>
        <time>2021-04-20T11:51:47.302Z</time>
      </trkpt>
      <trkpt lat="46.77344" lon="6.76254">
        <ele>619.81</ele>
        <time>2021-04-20T11:51:49.888Z</time>
      </trkpt>
      <trkpt lat="46.77363" lon="6.76247">
        <ele>616.87</ele>
        <time>2021-04-20T11:51:54.359Z</time>
      </trkpt>
      <trkpt lat="46.77375" lon="6.76243">
        <ele>614.96</ele>
        <time>2021-04-20T11:51:57.167Z</time>
      </trkpt>
      <trkpt lat="46.77389" lon="6.76237">
        <ele>612.82</ele>
        <time>2021-04-20T11:52:00.496Z</time>
      </trkpt>
      <trkpt lat="46.77396" lon="6.76235">
        <ele>611.95</ele>
        <time>2021-04-20T11:52:02.123Z</time>
      </trkpt>
      <trkpt lat="46.77401" lon="6.76231">
        <ele>611.11</ele>
        <time>2021-04-20T11:52:03.424Z</time>
      </trkpt>
      <trkpt lat="46.77406" lon="6.76227">
        <ele>610.68</ele>
        <time>2021-04-20T11:52:04.725Z</time>
      </trkpt>
      <trkpt lat="46.77411" lon="6.76221">
        <ele>609.92</ele>
        <time>2021-04-20T11:52:06.202Z</time>
      </trkpt>
      <trkpt lat="46.77416" lon="6.76215">
        <ele>609.14</ele>
        <time>2021-04-20T11:52:07.678Z</time>
      </trkpt>
      <trkpt lat="46.7742" lon="6.76208">
        <ele>607.86</ele>
        <time>2021-04-20T11:52:09.103Z</time>
      </trkpt>
      <trkpt lat="46.77424" lon="6.76201">
        <ele>607.24</ele>
        <time>2021-04-20T11:52:10.527Z</time>
      </trkpt>
      <trkpt lat="46.77428" lon="6.7619">
        <ele>606.08</ele>
        <time>2021-04-20T11:52:12.473Z</time>
      </trkpt>
      <trkpt lat="46.77433" lon="6.76173">
        <ele>604.94</ele>
        <time>2021-04-20T11:52:15.364Z</time>
      </trkpt>
      <trkpt lat="46.7744" lon="6.76153">
        <ele>603.98</ele>
        <time>2021-04-20T11:52:18.687Z</time>
      </trkpt>
      <trkpt lat="46.77448" lon="6.76132">
        <ele>602.88</ele>
        <time>2021-04-20T11:52:22.442Z</time>
      </trkpt>
      <trkpt lat="46.77451" lon="6.76124">
        <ele>602.5</ele>
        <time>2021-04-20T11:52:23.808Z</time>
      </trkpt>
      <trkpt lat="46.77452" lon="6.76119">
        <ele>602.2</ele>
        <time>2021-04-20T11:52:24.622Z</time>
      </trkpt>
      <trkpt lat="46.7746" lon="6.76087">
        <ele>601.09</ele>
        <time>2021-04-20T11:52:30.323Z</time>
      </trkpt>
      <trkpt lat="46.77461" lon="6.76082">
        <ele>600.93</ele>
        <time>2021-04-20T11:52:31.216Z</time>
      </trkpt>
      <trkpt lat="46.77465" lon="6.76073">
        <ele>600.69</ele>
        <time>2021-04-20T11:52:33.286Z</time>
      </trkpt>
      <trkpt lat="46.77468" lon="6.76068">
        <ele>600.58</ele>
        <time>2021-04-20T11:52:34.689Z</time>
      </trkpt>
      <trkpt lat="46.77472" lon="6.76062">
        <ele>600.45</ele>
        <time>2021-04-20T11:52:36.488Z</time>
      </trkpt>
      <trkpt lat="46.77476" lon="6.76056">
        <ele>600.44</ele>
        <time>2021-04-20T11:52:42.298Z</time>
      </trkpt>
      <trkpt lat="46.77482" lon="6.76048">
        <ele>600.24</ele>
        <time>2021-04-20T11:52:44.791Z</time>
      </trkpt>
      <trkpt lat="46.7749" lon="6.76037">
        <ele>600.2</ele>
        <time>2021-04-20T11:52:55.619Z</time>
      </trkpt>
      <trkpt lat="46.77495" lon="6.76028">
        <ele>600.49</ele>
        <time>2021-04-20T11:53:08.030Z</time>
      </trkpt>
      <trkpt lat="46.77499" lon="6.7602">
        <ele>600.93</ele>
        <time>2021-04-20T11:53:21.701Z</time>
      </trkpt>
      <trkpt lat="46.77503" lon="6.76009">
        <ele>601.55</ele>
        <time>2021-04-20T11:53:39.926Z</time>
      </trkpt>
      <trkpt lat="46.77509" lon="6.7599">
        <ele>603.17</ele>
        <time>2021-04-20T11:54:24.343Z</time>
      </trkpt>
      <trkpt lat="46.77515" lon="6.75971">
        <ele>605.35</ele>
        <time>2021-04-20T11:55:21.842Z</time>
      </trkpt>
      <trkpt lat="46.77518" lon="6.75952">
        <ele>607.64</ele>
        <time>2021-04-20T11:56:15.426Z</time>
      </trkpt>
      <trkpt lat="46.7752" lon="6.75943">
        <ele>608.73</ele>
        <time>2021-04-20T11:56:41.429Z</time>
      </trkpt>
      <trkpt lat="46.77521" lon="6.75932">
        <ele>610</ele>
        <time>2021-04-20T11:57:11.924Z</time>
      </trkpt>
      <trkpt lat="46.77525" lon="6.75907">
        <ele>612.95</ele>
        <time>2021-04-20T11:58:22.478Z</time>
      </trkpt>
      <trkpt lat="46.77526" lon="6.75903">
        <ele>613.4</ele>
        <time>2021-04-20T11:58:34.180Z</time>
      </trkpt>
      <trkpt lat="46.77528" lon="6.759">
        <ele>613.9</ele>
        <time>2021-04-20T11:58:45.685Z</time>
      </trkpt>
      <trkpt lat="46.77533" lon="6.75893">
        <ele>614.81</ele>
        <time>2021-04-20T11:59:12.676Z</time>
      </trkpt>
      <trkpt lat="46.77535" lon="6.75892">
        <ele>615.28</ele>
        <time>2021-04-20T11:59:21.159Z</time>
      </trkpt>
      <trkpt lat="46.77537" lon="6.75891">
        <ele>615.55</ele>
        <time>2021-04-20T11:59:28.995Z</time>
      </trkpt>
      <trkpt lat="46.7754" lon="6.75891">
        <ele>615.82</ele>
        <time>2021-04-20T11:59:36.390Z</time>
      </trkpt>
      <trkpt lat="46.77542" lon="6.75892">
        <ele>616.09</ele>
        <time>2021-04-20T11:59:44.226Z</time>
      </trkpt>
      <trkpt lat="46.77544" lon="6.75893">
        <ele>616.41</ele>
        <time>2021-04-20T11:59:52.709Z</time>
      </trkpt>
      <trkpt lat="46.77546" lon="6.75895">
        <ele>616.76</ele>
        <time>2021-04-20T12:00:02.436Z</time>
      </trkpt>
      <trkpt lat="46.77548" lon="6.75897">
        <ele>617.14</ele>
        <time>2021-04-20T12:00:12.163Z</time>
      </trkpt>
      <trkpt lat="46.77549" lon="6.759">
        <ele>617.38</ele>
        <time>2021-04-20T12:00:18.664Z</time>
      </trkpt>
      <trkpt lat="46.77551" lon="6.75902">
        <ele>617.65</ele>
        <time>2021-04-20T12:00:26.040Z</time>
      </trkpt>
      <trkpt lat="46.77552" lon="6.75909">
        <ele>618.31</ele>
        <time>2021-04-20T12:00:45.691Z</time>
      </trkpt>
      <trkpt lat="46.77552" lon="6.75908">
        <ele>617.98</ele>
        <time>2021-04-20T12:00:45.847Z</time>
      </trkpt>
      <trkpt lat="46.77551" lon="6.75902">
        <ele>617.65</ele>
        <time>2021-04-20T12:00:46.812Z</time>
      </trkpt>
      <trkpt lat="46.77549" lon="6.759">
        <ele>617.38</ele>
        <time>2021-04-20T12:00:47.365Z</time>
      </trkpt>
      <trkpt lat="46.77548" lon="6.75897">
        <ele>617.14</ele>
        <time>2021-04-20T12:00:47.887Z</time>
      </trkpt>
      <trkpt lat="46.77546" lon="6.75895">
        <ele>616.76</ele>
        <time>2021-04-20T12:00:48.440Z</time>
      </trkpt>
      <trkpt lat="46.77544" lon="6.75893">
        <ele>616.41</ele>
        <time>2021-04-20T12:00:48.993Z</time>
      </trkpt>
      <trkpt lat="46.77542" lon="6.75892">
        <ele>616.09</ele>
        <time>2021-04-20T12:00:49.475Z</time>
      </trkpt>
      <trkpt lat="46.7754" lon="6.75891">
        <ele>615.82</ele>
        <time>2021-04-20T12:00:49.957Z</time>
      </trkpt>
      <trkpt lat="46.77537" lon="6.75891">
        <ele>615.55</ele>
        <time>2021-04-20T12:00:50.642Z</time>
      </trkpt>
      <trkpt lat="46.77535" lon="6.75892">
        <ele>615.28</ele>
        <time>2021-04-20T12:00:51.124Z</time>
      </trkpt>
      <trkpt lat="46.77533" lon="6.75893">
        <ele>614.81</ele>
        <time>2021-04-20T12:00:51.607Z</time>
      </trkpt>
      <trkpt lat="46.77528" lon="6.759">
        <ele>613.9</ele>
        <time>2021-04-20T12:00:53.187Z</time>
      </trkpt>
      <trkpt lat="46.77526" lon="6.75903">
        <ele>613.4</ele>
        <time>2021-04-20T12:00:53.841Z</time>
      </trkpt>
      <trkpt lat="46.77525" lon="6.75907">
        <ele>612.95</ele>
        <time>2021-04-20T12:00:54.507Z</time>
      </trkpt>
      <trkpt lat="46.77521" lon="6.75932">
        <ele>610</ele>
        <time>2021-04-20T12:00:58.518Z</time>
      </trkpt>
      <trkpt lat="46.7752" lon="6.75943">
        <ele>608.73</ele>
        <time>2021-04-20T12:01:00.252Z</time>
      </trkpt>
      <trkpt lat="46.77518" lon="6.75952">
        <ele>607.64</ele>
        <time>2021-04-20T12:01:01.731Z</time>
      </trkpt>
      <trkpt lat="46.77515" lon="6.75971">
        <ele>605.35</ele>
        <time>2021-04-20T12:01:04.777Z</time>
      </trkpt>
      <trkpt lat="46.77509" lon="6.7599">
        <ele>603.17</ele>
        <time>2021-04-20T12:01:08.047Z</time>
      </trkpt>
      <trkpt lat="46.77503" lon="6.76009">
        <ele>601.55</ele>
        <time>2021-04-20T12:01:11.316Z</time>
      </trkpt>
      <trkpt lat="46.77499" lon="6.7602">
        <ele>600.93</ele>
        <time>2021-04-20T12:01:13.262Z</time>
      </trkpt>
      <trkpt lat="46.77495" lon="6.76028">
        <ele>600.49</ele>
        <time>2021-04-20T12:01:14.700Z</time>
      </trkpt>
      <trkpt lat="46.77494" lon="6.76023">
        <ele>600.28</ele>
        <time>2021-04-20T12:01:15.492Z</time>
      </trkpt>
      <trkpt lat="46.77494" lon="6.76016">
        <ele>599.86</ele>
        <time>2021-04-20T12:01:16.586Z</time>
      </trkpt>
      <trkpt lat="46.77494" lon="6.75962">
        <ele>596.75</ele>
        <time>2021-04-20T12:01:25.024Z</time>
      </trkpt>
      <trkpt lat="46.77495" lon="6.7595">
        <ele>596.5</ele>
        <time>2021-04-20T12:01:27.415Z</time>
      </trkpt>
      <trkpt lat="46.77494" lon="6.75944">
        <ele>596.4</ele>
        <time>2021-04-20T12:01:28.727Z</time>
      </trkpt>
      <trkpt lat="46.77494" lon="6.75943">
        <ele>596.4</ele>
        <time>2021-04-20T12:01:29.439Z</time>
      </trkpt>
      <trkpt lat="46.77494" lon="6.75938">
        <ele>596.3</ele>
        <time>2021-04-20T12:01:30.439Z</time>
      </trkpt>
      <trkpt lat="46.77493" lon="6.75922">
        <ele>595.95</ele>
        <time>2021-04-20T12:01:33.565Z</time>
      </trkpt>
      <trkpt lat="46.77491" lon="6.75906">
        <ele>594.96</ele>
        <time>2021-04-20T12:01:36.106Z</time>
      </trkpt>
      <trkpt lat="46.77489" lon="6.75892">
        <ele>594.1</ele>
        <time>2021-04-20T12:01:38.341Z</time>
      </trkpt>
      <trkpt lat="46.77488" lon="6.75866">
        <ele>592.7</ele>
        <time>2021-04-20T12:01:42.410Z</time>
      </trkpt>
      <trkpt lat="46.77487" lon="6.75857">
        <ele>592.24</ele>
        <time>2021-04-20T12:01:43.835Z</time>
      </trkpt>
      <trkpt lat="46.77489" lon="6.75846">
        <ele>591.92</ele>
        <time>2021-04-20T12:01:45.856Z</time>
      </trkpt>
      <trkpt lat="46.77491" lon="6.75833">
        <ele>591.94</ele>
        <time>2021-04-20T12:01:55.544Z</time>
      </trkpt>
      <trkpt lat="46.77493" lon="6.75823">
        <ele>592.28</ele>
        <time>2021-04-20T12:02:08.326Z</time>
      </trkpt>
      <trkpt lat="46.77496" lon="6.75797">
        <ele>595.57</ele>
        <time>2021-04-20T12:03:20.785Z</time>
      </trkpt>
      <trkpt lat="46.77497" lon="6.75786">
        <ele>595.8</ele>
        <time>2021-04-20T12:03:31.724Z</time>
      </trkpt>
      <trkpt lat="46.77497" lon="6.75775">
        <ele>595.54</ele>
        <time>2021-04-20T12:03:33.806Z</time>
      </trkpt>
      <trkpt lat="46.77498" lon="6.75749">
        <ele>594.82</ele>
        <time>2021-04-20T12:03:38.461Z</time>
      </trkpt>
      <trkpt lat="46.77502" lon="6.75737">
        <ele>594.58</ele>
        <time>2021-04-20T12:03:41.215Z</time>
      </trkpt>
      <trkpt lat="46.77517" lon="6.75714">
        <ele>591.7</ele>
        <time>2021-04-20T12:03:46.178Z</time>
      </trkpt>
      <trkpt lat="46.7752" lon="6.7571">
        <ele>590.34</ele>
        <time>2021-04-20T12:03:47.105Z</time>
      </trkpt>
      <trkpt lat="46.7752" lon="6.7571">
        <ele>590.34</ele>
        <time>2021-04-20T12:03:47.105Z</time>
      </trkpt>
      <trkpt lat="46.77533" lon="6.75691">
        <ele>588.98</ele>
        <time>2021-04-20T12:03:51.301Z</time>
      </trkpt>
      <trkpt lat="46.77548" lon="6.75668">
        <ele>583.69</ele>
        <time>2021-04-20T12:03:56.264Z</time>
      </trkpt>
      <trkpt lat="46.77559" lon="6.75645">
        <ele>577.6</ele>
        <time>2021-04-20T12:04:00.648Z</time>
      </trkpt>
      <trkpt lat="46.77564" lon="6.75648">
        <ele>575.86</ele>
        <time>2021-04-20T12:04:01.881Z</time>
      </trkpt>
      <trkpt lat="46.77571" lon="6.75642">
        <ele>571.48</ele>
        <time>2021-04-20T12:04:03.733Z</time>
      </trkpt>
      <trkpt lat="46.77583" lon="6.75628">
        <ele>570.33</ele>
        <time>2021-04-20T12:04:07.237Z</time>
      </trkpt>
      <trkpt lat="46.77586" lon="6.75623">
        <ele>569.51</ele>
        <time>2021-04-20T12:04:08.276Z</time>
      </trkpt>
      <trkpt lat="46.77588" lon="6.75618">
        <ele>568.67</ele>
        <time>2021-04-20T12:04:09.181Z</time>
      </trkpt>
      <trkpt lat="46.77591" lon="6.75613">
        <ele>566.59</ele>
        <time>2021-04-20T12:04:10.220Z</time>
      </trkpt>
      <trkpt lat="46.77594" lon="6.7561">
        <ele>564.48</ele>
        <time>2021-04-20T12:04:11.049Z</time>
      </trkpt>
      <trkpt lat="46.776" lon="6.75604">
        <ele>561.59</ele>
        <time>2021-04-20T12:04:12.708Z</time>
      </trkpt>
      <trkpt lat="46.77605" lon="6.75602">
        <ele>559.12</ele>
        <time>2021-04-20T12:04:13.891Z</time>
      </trkpt>
      <trkpt lat="46.77615" lon="6.75594">
        <ele>554.02</ele>
        <time>2021-04-20T12:04:16.493Z</time>
      </trkpt>
      <trkpt lat="46.77621" lon="6.75591">
        <ele>553.12</ele>
        <time>2021-04-20T12:04:17.940Z</time>
      </trkpt>
      <trkpt lat="46.77629" lon="6.75586">
        <ele>549.69</ele>
        <time>2021-04-20T12:04:19.925Z</time>
      </trkpt>
      <trkpt lat="46.77642" lon="6.75576">
        <ele>543.96</ele>
        <time>2021-04-20T12:04:23.278Z</time>
      </trkpt>
      <trkpt lat="46.77643" lon="6.75573">
        <ele>543.15</ele>
        <time>2021-04-20T12:04:23.799Z</time>
      </trkpt>
      <trkpt lat="46.77643" lon="6.75571">
        <ele>542.42</ele>
        <time>2021-04-20T12:04:24.111Z</time>
      </trkpt>
      <trkpt lat="46.77639" lon="6.75571">
        <ele>541.24</ele>
        <time>2021-04-20T12:04:25.024Z</time>
      </trkpt>
      <trkpt lat="46.77634" lon="6.7557">
        <ele>539.44</ele>
        <time>2021-04-20T12:04:26.176Z</time>
      </trkpt>
      <trkpt lat="46.7763" lon="6.75568">
        <ele>538.17</ele>
        <time>2021-04-20T12:04:27.140Z</time>
      </trkpt>
      <trkpt lat="46.7762" lon="6.75559">
        <ele>535.04</ele>
        <time>2021-04-20T12:04:29.820Z</time>
      </trkpt>
      <trkpt lat="46.77617" lon="6.75555">
        <ele>534.29</ele>
        <time>2021-04-20T12:04:30.747Z</time>
      </trkpt>
      <trkpt lat="46.77613" lon="6.75552">
        <ele>533.21</ele>
        <time>2021-04-20T12:04:31.773Z</time>
      </trkpt>
      <trkpt lat="46.77614" lon="6.7555">
        <ele>532.85</ele>
        <time>2021-04-20T12:04:32.160Z</time>
      </trkpt>
      <trkpt lat="46.77618" lon="6.75547">
        <ele>531.05</ele>
        <time>2021-04-20T12:04:33.186Z</time>
      </trkpt>
      <trkpt lat="46.77625" lon="6.75546">
        <ele>527.83</ele>
        <time>2021-04-20T12:04:34.791Z</time>
      </trkpt>
      <trkpt lat="46.77633" lon="6.75542">
        <ele>525.58</ele>
        <time>2021-04-20T12:04:36.720Z</time>
      </trkpt>
      <trkpt lat="46.77638" lon="6.75538">
        <ele>524.08</ele>
        <time>2021-04-20T12:04:38.021Z</time>
      </trkpt>
      <trkpt lat="46.77639" lon="6.75535">
        <ele>522.9</ele>
        <time>2021-04-20T12:04:38.542Z</time>
      </trkpt>
      <trkpt lat="46.77638" lon="6.7553">
        <ele>521.01</ele>
        <time>2021-04-20T12:04:39.356Z</time>
      </trkpt>
      <trkpt lat="46.77637" lon="6.75526">
        <ele>519.65</ele>
        <time>2021-04-20T12:04:40.022Z</time>
      </trkpt>
      <trkpt lat="46.77637" lon="6.7552">
        <ele>518.64</ele>
        <time>2021-04-20T12:04:40.959Z</time>
      </trkpt>
      <trkpt lat="46.77638" lon="6.75513">
        <ele>516.49</ele>
        <time>2021-04-20T12:04:42.076Z</time>
      </trkpt>
      <trkpt lat="46.77638" lon="6.75509">
        <ele>515.38</ele>
        <time>2021-04-20T12:04:42.701Z</time>
      </trkpt>
      <trkpt lat="46.77636" lon="6.75506">
        <ele>514.61</ele>
        <time>2021-04-20T12:04:43.356Z</time>
      </trkpt>
      <trkpt lat="46.77633" lon="6.75503">
        <ele>513.95</ele>
        <time>2021-04-20T12:04:44.185Z</time>
      </trkpt>
      <trkpt lat="46.77632" lon="6.75501">
        <ele>512.99</ele>
        <time>2021-04-20T12:04:44.572Z</time>
      </trkpt>
      <trkpt lat="46.77631" lon="6.75495">
        <ele>511.14</ele>
        <time>2021-04-20T12:04:45.537Z</time>
      </trkpt>
      <trkpt lat="46.77636" lon="6.75493">
        <ele>510.9</ele>
        <time>2021-04-20T12:04:46.818Z</time>
      </trkpt>
      <trkpt lat="46.77638" lon="6.75494">
        <ele>510.1</ele>
        <time>2021-04-20T12:04:47.301Z</time>
      </trkpt>
      <trkpt lat="46.77642" lon="6.75495">
        <ele>508.59</ele>
        <time>2021-04-20T12:04:48.227Z</time>
      </trkpt>
      <trkpt lat="46.77645" lon="6.75494">
        <ele>508.28</ele>
        <time>2021-04-20T12:04:48.929Z</time>
      </trkpt>
      <trkpt lat="46.77655" lon="6.75505">
        <ele>506.86</ele>
        <time>2021-04-20T12:04:51.785Z</time>
      </trkpt>
      <trkpt lat="46.77659" lon="6.75508">
        <ele>507.25</ele>
        <time>2021-04-20T12:05:02.558Z</time>
      </trkpt>
      <trkpt lat="46.77666" lon="6.75516">
        <ele>506.66</ele>
        <time>2021-04-20T12:05:04.420Z</time>
      </trkpt>
      <trkpt lat="46.7767" lon="6.7552">
        <ele>506.35</ele>
        <time>2021-04-20T12:05:05.454Z</time>
      </trkpt>
      <trkpt lat="46.77676" lon="6.75523">
        <ele>506.23</ele>
        <time>2021-04-20T12:05:07.532Z</time>
      </trkpt>
      <trkpt lat="46.77684" lon="6.75529">
        <ele>505.83</ele>
        <time>2021-04-20T12:05:09.792Z</time>
      </trkpt>
      <trkpt lat="46.77691" lon="6.75532">
        <ele>505.5</ele>
        <time>2021-04-20T12:05:11.612Z</time>
      </trkpt>
      <trkpt lat="46.77712" lon="6.75539">
        <ele>505.6</ele>
        <time>2021-04-20T12:05:35.016Z</time>
      </trkpt>
      <trkpt lat="46.77718" lon="6.75543">
        <ele>505.48</ele>
        <time>2021-04-20T12:05:37.196Z</time>
      </trkpt>
      <trkpt lat="46.77728" lon="6.75548">
        <ele>505.58</ele>
        <time>2021-04-20T12:05:49.235Z</time>
      </trkpt>
      <trkpt lat="46.77736" lon="6.75554">
        <ele>504.99</ele>
        <time>2021-04-20T12:05:51.130Z</time>
      </trkpt>
      <trkpt lat="46.77741" lon="6.75556">
        <ele>504.5</ele>
        <time>2021-04-20T12:05:52.313Z</time>
      </trkpt>
      <trkpt lat="46.77746" lon="6.75555">
        <ele>504.3</ele>
        <time>2021-04-20T12:05:53.640Z</time>
      </trkpt>
      <trkpt lat="46.77751" lon="6.75555">
        <ele>504.12</ele>
        <time>2021-04-20T12:05:55.002Z</time>
      </trkpt>
      <trkpt lat="46.77767" lon="6.75558">
        <ele>503.58</ele>
        <time>2021-04-20T12:05:59.507Z</time>
      </trkpt>
      <trkpt lat="46.77776" lon="6.75562">
        <ele>503.63</ele>
        <time>2021-04-20T12:06:09.795Z</time>
      </trkpt>
      <trkpt lat="46.77787" lon="6.75569">
        <ele>503.28</ele>
        <time>2021-04-20T12:06:13.298Z</time>
      </trkpt>
      <trkpt lat="46.77798" lon="6.75577">
        <ele>501.93</ele>
        <time>2021-04-20T12:06:16.102Z</time>
      </trkpt>
      <trkpt lat="46.77808" lon="6.75581">
        <ele>500.85</ele>
        <time>2021-04-20T12:06:18.468Z</time>
      </trkpt>
      <trkpt lat="46.77812" lon="6.75582">
        <ele>499.67</ele>
        <time>2021-04-20T12:06:19.394Z</time>
      </trkpt>
      <trkpt lat="46.77819" lon="6.7558">
        <ele>498.74</ele>
        <time>2021-04-20T12:06:21.021Z</time>
      </trkpt>
      <trkpt lat="46.77829" lon="6.75578">
        <ele>497.9</ele>
        <time>2021-04-20T12:06:23.324Z</time>
      </trkpt>
      <trkpt lat="46.77837" lon="6.75576">
        <ele>497.19</ele>
        <time>2021-04-20T12:06:25.176Z</time>
      </trkpt>
      <trkpt lat="46.77842" lon="6.75574">
        <ele>496.51</ele>
        <time>2021-04-20T12:06:26.359Z</time>
      </trkpt>
      <trkpt lat="46.77848" lon="6.7557">
        <ele>495.84</ele>
        <time>2021-04-20T12:06:27.863Z</time>
      </trkpt>
      <trkpt lat="46.77852" lon="6.75566">
        <ele>495.23</ele>
        <time>2021-04-20T12:06:28.970Z</time>
      </trkpt>
      <trkpt lat="46.77856" lon="6.75561">
        <ele>495.09</ele>
        <time>2021-04-20T12:06:30.550Z</time>
      </trkpt>
      <trkpt lat="46.77859" lon="6.75555">
        <ele>495.23</ele>
        <time>2021-04-20T12:06:37.627Z</time>
      </trkpt>
      <trkpt lat="46.77864" lon="6.75543">
        <ele>495.09</ele>
        <time>2021-04-20T12:06:40.950Z</time>
      </trkpt>
      <trkpt lat="46.77865" lon="6.7554">
        <ele>495.77</ele>
        <time>2021-04-20T12:06:50.119Z</time>
      </trkpt>
      <trkpt lat="46.77866" lon="6.75538">
        <ele>495.9</ele>
        <time>2021-04-20T12:06:53.856Z</time>
      </trkpt>
      <trkpt lat="46.77876" lon="6.75539">
        <ele>496.04</ele>
        <time>2021-04-20T12:07:05.814Z</time>
      </trkpt>
      <trkpt lat="46.77877" lon="6.75537">
        <ele>496.58</ele>
        <time>2021-04-20T12:07:12.619Z</time>
      </trkpt>
      <trkpt lat="46.77878" lon="6.75533">
        <ele>496.85</ele>
        <time>2021-04-20T12:07:19.977Z</time>
      </trkpt>
      <trkpt lat="46.7788" lon="6.75525">
        <ele>496.85</ele>
        <time>2021-04-20T12:07:26.044Z</time>
      </trkpt>
      <trkpt lat="46.77882" lon="6.7552">
        <ele>497.12</ele>
        <time>2021-04-20T12:07:34.227Z</time>
      </trkpt>
      <trkpt lat="46.77882" lon="6.75516">
        <ele>496.58</ele>
        <time>2021-04-20T12:07:34.852Z</time>
      </trkpt>
      <trkpt lat="46.77882" lon="6.75511">
        <ele>496.31</ele>
        <time>2021-04-20T12:07:35.634Z</time>
      </trkpt>
      <trkpt lat="46.77881" lon="6.75507">
        <ele>496.17</ele>
        <time>2021-04-20T12:07:36.343Z</time>
      </trkpt>
      <trkpt lat="46.77879" lon="6.75496">
        <ele>496.15</ele>
        <time>2021-04-20T12:07:44.145Z</time>
      </trkpt>
      <trkpt lat="46.77877" lon="6.7547">
        <ele>495.9</ele>
        <time>2021-04-20T12:07:50.382Z</time>
      </trkpt>
      <trkpt lat="46.77876" lon="6.75454">
        <ele>495.4</ele>
        <time>2021-04-20T12:07:53.122Z</time>
      </trkpt>
      <trkpt lat="46.77876" lon="6.75436">
        <ele>494.89</ele>
        <time>2021-04-20T12:07:56.310Z</time>
      </trkpt>
      <trkpt lat="46.77876" lon="6.75426">
        <ele>494.59</ele>
        <time>2021-04-20T12:07:58.041Z</time>
      </trkpt>
      <trkpt lat="46.77879" lon="6.75399">
        <ele>493.63</ele>
        <time>2021-04-20T12:08:02.475Z</time>
      </trkpt>
      <trkpt lat="46.77883" lon="6.75385">
        <ele>492.13</ele>
        <time>2021-04-20T12:08:04.845Z</time>
      </trkpt>
      <trkpt lat="46.77886" lon="6.75374">
        <ele>490.77</ele>
        <time>2021-04-20T12:08:06.695Z</time>
      </trkpt>
      <trkpt lat="46.77889" lon="6.75368">
        <ele>489.85</ele>
        <time>2021-04-20T12:08:07.856Z</time>
      </trkpt>
      <trkpt lat="46.77895" lon="6.75361">
        <ele>489.4</ele>
        <time>2021-04-20T12:08:09.565Z</time>
      </trkpt>
      <trkpt lat="46.77904" lon="6.7535">
        <ele>489.25</ele>
        <time>2021-04-20T12:08:13.712Z</time>
      </trkpt>
      <trkpt lat="46.77915" lon="6.75337">
        <ele>488.73</ele>
        <time>2021-04-20T12:08:17.538Z</time>
      </trkpt>
      <trkpt lat="46.77928" lon="6.7531">
        <ele>488.34</ele>
        <time>2021-04-20T12:08:25.091Z</time>
      </trkpt>
      <trkpt lat="46.77938" lon="6.75291">
        <ele>488.81</ele>
        <time>2021-04-20T12:08:48.234Z</time>
      </trkpt>
      <trkpt lat="46.7795" lon="6.75271">
        <ele>489.3</ele>
        <time>2021-04-20T12:09:13.375Z</time>
      </trkpt>
      <trkpt lat="46.77952" lon="6.75266">
        <ele>489.65</ele>
        <time>2021-04-20T12:09:23.002Z</time>
      </trkpt>
      <trkpt lat="46.77954" lon="6.75259">
        <ele>490.21</ele>
        <time>2021-04-20T12:09:38.212Z</time>
      </trkpt>
      <trkpt lat="46.77955" lon="6.75252">
        <ele>490.76</ele>
        <time>2021-04-20T12:09:53.267Z</time>
      </trkpt>
      <trkpt lat="46.77958" lon="6.75232">
        <ele>490.18</ele>
        <time>2021-04-20T12:09:56.893Z</time>
      </trkpt>
      <trkpt lat="46.77961" lon="6.7522">
        <ele>489.82</ele>
        <time>2021-04-20T12:09:59.159Z</time>
      </trkpt>
      <trkpt lat="46.77963" lon="6.75212">
        <ele>489.79</ele>
        <time>2021-04-20T12:10:04.784Z</time>
      </trkpt>
      <trkpt lat="46.77966" lon="6.75204">
        <ele>490.28</ele>
        <time>2021-04-20T12:10:18.749Z</time>
      </trkpt>
      <trkpt lat="46.77968" lon="6.75197">
        <ele>490.44</ele>
        <time>2021-04-20T12:10:26.276Z</time>
      </trkpt>
      <trkpt lat="46.77973" lon="6.75187">
        <ele>489.59</ele>
        <time>2021-04-20T12:10:28.211Z</time>
      </trkpt>
      <trkpt lat="46.7798" lon="6.75178">
        <ele>489.56</ele>
        <time>2021-04-20T12:10:37.458Z</time>
      </trkpt>
      <trkpt lat="46.77984" lon="6.75169">
        <ele>489.79</ele>
        <time>2021-04-20T12:10:48.175Z</time>
      </trkpt>
      <trkpt lat="46.77989" lon="6.75158">
        <ele>490.31</ele>
        <time>2021-04-20T12:11:05.473Z</time>
      </trkpt>
      <trkpt lat="46.77996" lon="6.75142">
        <ele>491.1</ele>
        <time>2021-04-20T12:11:30.918Z</time>
      </trkpt>
      <trkpt lat="46.78" lon="6.7513">
        <ele>491.87</ele>
        <time>2021-04-20T12:11:52.354Z</time>
      </trkpt>
      <trkpt lat="46.78003" lon="6.75121">
        <ele>492.1</ele>
        <time>2021-04-20T12:12:02.650Z</time>
      </trkpt>
      <trkpt lat="46.78007" lon="6.75104">
        <ele>490.69</ele>
        <time>2021-04-20T12:12:05.458Z</time>
      </trkpt>
      <trkpt lat="46.78008" lon="6.75096">
        <ele>489.92</ele>
        <time>2021-04-20T12:12:06.729Z</time>
      </trkpt>
      <trkpt lat="46.78009" lon="6.75088">
        <ele>489.36</ele>
        <time>2021-04-20T12:12:07.999Z</time>
      </trkpt>
      <trkpt lat="46.78009" lon="6.75076">
        <ele>488.91</ele>
        <time>2021-04-20T12:12:09.887Z</time>
      </trkpt>
      <trkpt lat="46.78008" lon="6.75065">
        <ele>488.56</ele>
        <time>2021-04-20T12:12:11.770Z</time>
      </trkpt>
      <trkpt lat="46.78006" lon="6.75054">
        <ele>488.45</ele>
        <time>2021-04-20T12:12:14.477Z</time>
      </trkpt>
      <trkpt lat="46.78004" lon="6.75048">
        <ele>488.45</ele>
        <time>2021-04-20T12:12:19.231Z</time>
      </trkpt>
      <trkpt lat="46.78002" lon="6.75041">
        <ele>488.51</ele>
        <time>2021-04-20T12:12:25.274Z</time>
      </trkpt>
      <trkpt lat="46.77997" lon="6.75028">
        <ele>488.11</ele>
        <time>2021-04-20T12:12:27.970Z</time>
      </trkpt>
      <trkpt lat="46.77994" lon="6.75023">
        <ele>487.63</ele>
        <time>2021-04-20T12:12:29.009Z</time>
      </trkpt>
      <trkpt lat="46.77991" lon="6.75017">
        <ele>486.97</ele>
        <time>2021-04-20T12:12:30.169Z</time>
      </trkpt>
      <trkpt lat="46.77987" lon="6.75011">
        <ele>486.5</ele>
        <time>2021-04-20T12:12:31.478Z</time>
      </trkpt>
      <trkpt lat="46.77984" lon="6.75006">
        <ele>485.85</ele>
        <time>2021-04-20T12:12:32.516Z</time>
      </trkpt>
      <trkpt lat="46.77982" lon="6.75001">
        <ele>485.44</ele>
        <time>2021-04-20T12:12:33.421Z</time>
      </trkpt>
      <trkpt lat="46.7798" lon="6.74995">
        <ele>484.9</ele>
        <time>2021-04-20T12:12:34.464Z</time>
      </trkpt>
      <trkpt lat="46.77978" lon="6.7499">
        <ele>484.54</ele>
        <time>2021-04-20T12:12:35.368Z</time>
      </trkpt>
      <trkpt lat="46.77977" lon="6.74984">
        <ele>484.14</ele>
        <time>2021-04-20T12:12:36.333Z</time>
      </trkpt>
      <trkpt lat="46.77977" lon="6.74978">
        <ele>483.72</ele>
        <time>2021-04-20T12:12:37.271Z</time>
      </trkpt>
      <trkpt lat="46.77978" lon="6.74969">
        <ele>483.17</ele>
        <time>2021-04-20T12:12:38.695Z</time>
      </trkpt>
      <trkpt lat="46.77978" lon="6.74962">
        <ele>482.72</ele>
        <time>2021-04-20T12:12:39.789Z</time>
      </trkpt>
      <trkpt lat="46.7798" lon="6.74952">
        <ele>482.13</ele>
        <time>2021-04-20T12:12:41.417Z</time>
      </trkpt>
      <trkpt lat="46.77981" lon="6.74944">
        <ele>481.82</ele>
        <time>2021-04-20T12:12:42.686Z</time>
      </trkpt>
      <trkpt lat="46.77983" lon="6.74933">
        <ele>481.42</ele>
        <time>2021-04-20T12:12:44.530Z</time>
      </trkpt>
      <trkpt lat="46.77985" lon="6.74913">
        <ele>480.78</ele>
        <time>2021-04-20T12:12:47.953Z</time>
      </trkpt>
      <trkpt lat="46.77988" lon="6.74891">
        <ele>479.86</ele>
        <time>2021-04-20T12:12:51.338Z</time>
      </trkpt>
      <trkpt lat="46.77989" lon="6.74884">
        <ele>479.53</ele>
        <time>2021-04-20T12:12:52.455Z</time>
      </trkpt>
      <trkpt lat="46.77989" lon="6.74879">
        <ele>479.3</ele>
        <time>2021-04-20T12:12:53.236Z</time>
      </trkpt>
      <trkpt lat="46.77988" lon="6.74872">
        <ele>479.05</ele>
        <time>2021-04-20T12:12:54.397Z</time>
      </trkpt>
      <trkpt lat="46.77986" lon="6.74861">
        <ele>478.76</ele>
        <time>2021-04-20T12:12:56.494Z</time>
      </trkpt>
      <trkpt lat="46.77986" lon="6.74855">
        <ele>478.72</ele>
        <time>2021-04-20T12:12:58.005Z</time>
      </trkpt>
      <trkpt lat="46.77986" lon="6.74854">
        <ele>478.72</ele>
        <time>2021-04-20T12:12:58.717Z</time>
      </trkpt>
      <trkpt lat="46.77986" lon="6.74852">
        <ele>478.68</ele>
        <time>2021-04-20T12:12:59.117Z</time>
      </trkpt>
      <trkpt lat="46.77986" lon="6.74846">
        <ele>478.57</ele>
        <time>2021-04-20T12:13:00.348Z</time>
      </trkpt>
      <trkpt lat="46.77986" lon="6.74841">
        <ele>478.45</ele>
        <time>2021-04-20T12:13:01.289Z</time>
      </trkpt>
      <trkpt lat="46.77988" lon="6.74835">
        <ele>478.34</ele>
        <time>2021-04-20T12:13:02.700Z</time>
      </trkpt>
      <trkpt lat="46.77992" lon="6.74824">
        <ele>478.05</ele>
        <time>2021-04-20T12:13:05.069Z</time>
      </trkpt>
      <trkpt lat="46.77999" lon="6.74812">
        <ele>477.31</ele>
        <time>2021-04-20T12:13:07.532Z</time>
      </trkpt>
      <trkpt lat="46.78004" lon="6.74801">
        <ele>476.6</ele>
        <time>2021-04-20T12:13:09.595Z</time>
      </trkpt>
      <trkpt lat="46.78009" lon="6.7479">
        <ele>475.98</ele>
        <time>2021-04-20T12:13:11.658Z</time>
      </trkpt>
      <trkpt lat="46.78019" lon="6.7476">
        <ele>474.72</ele>
        <time>2021-04-20T12:13:16.890Z</time>
      </trkpt>
      <trkpt lat="46.78024" lon="6.74748">
        <ele>474.44</ele>
        <time>2021-04-20T12:13:19.701Z</time>
      </trkpt>
      <trkpt lat="46.78029" lon="6.74737">
        <ele>474.19</ele>
        <time>2021-04-20T12:13:22.384Z</time>
      </trkpt>
      <trkpt lat="46.78034" lon="6.7473">
        <ele>474.05</ele>
        <time>2021-04-20T12:13:24.619Z</time>
      </trkpt>
      <trkpt lat="46.78042" lon="6.74718">
        <ele>473.85</ele>
        <time>2021-04-20T12:13:28.443Z</time>
      </trkpt>
      <trkpt lat="46.78046" lon="6.74712">
        <ele>473.77</ele>
        <time>2021-04-20T12:13:30.439Z</time>
      </trkpt>
      <trkpt lat="46.78054" lon="6.74699">
        <ele>474</ele>
        <time>2021-04-20T12:13:45.550Z</time>
      </trkpt>
      <trkpt lat="46.78063" lon="6.74682">
        <ele>474.13</ele>
        <time>2021-04-20T12:14:02.207Z</time>
      </trkpt>
      <trkpt lat="46.7807" lon="6.74667">
        <ele>473.36</ele>
        <time>2021-04-20T12:14:04.901Z</time>
      </trkpt>
      <trkpt lat="46.78073" lon="6.7466">
        <ele>473.15</ele>
        <time>2021-04-20T12:14:06.424Z</time>
      </trkpt>
      <trkpt lat="46.78075" lon="6.74654">
        <ele>472.99</ele>
        <time>2021-04-20T12:14:07.680Z</time>
      </trkpt>
      <trkpt lat="46.78078" lon="6.74644">
        <ele>472.78</ele>
        <time>2021-04-20T12:14:09.889Z</time>
      </trkpt>
      <trkpt lat="46.78084" lon="6.74617">
        <ele>471.28</ele>
        <time>2021-04-20T12:14:14.324Z</time>
      </trkpt>
      <trkpt lat="46.78088" lon="6.74608">
        <ele>470.79</ele>
        <time>2021-04-20T12:14:15.859Z</time>
      </trkpt>
      <trkpt lat="46.78092" lon="6.746">
        <ele>470.05</ele>
        <time>2021-04-20T12:14:17.407Z</time>
      </trkpt>
      <trkpt lat="46.78097" lon="6.74594">
        <ele>469.41</ele>
        <time>2021-04-20T12:14:18.884Z</time>
      </trkpt>
      <trkpt lat="46.78104" lon="6.74588">
        <ele>469.05</ele>
        <time>2021-04-20T12:14:20.925Z</time>
      </trkpt>
      <trkpt lat="46.78112" lon="6.74582">
        <ele>468.92</ele>
        <time>2021-04-20T12:14:24.036Z</time>
      </trkpt>
      <trkpt lat="46.78119" lon="6.74575">
        <ele>468.96</ele>
        <time>2021-04-20T12:14:33.261Z</time>
      </trkpt>
      <trkpt lat="46.78134" lon="6.7456">
        <ele>468.48</ele>
        <time>2021-04-20T12:14:38.730Z</time>
      </trkpt>
      <trkpt lat="46.78139" lon="6.74555">
        <ele>468.17</ele>
        <time>2021-04-20T12:14:40.165Z</time>
      </trkpt>
      <trkpt lat="46.78147" lon="6.7455">
        <ele>468.01</ele>
        <time>2021-04-20T12:14:43.034Z</time>
      </trkpt>
      <trkpt lat="46.78153" lon="6.74547">
        <ele>467.93</ele>
        <time>2021-04-20T12:14:45.279Z</time>
      </trkpt>
      <trkpt lat="46.78159" lon="6.74545">
        <ele>467.82</ele>
        <time>2021-04-20T12:14:47.320Z</time>
      </trkpt>
      <trkpt lat="46.78178" lon="6.74539">
        <ele>467.24</ele>
        <time>2021-04-20T12:14:52.957Z</time>
      </trkpt>
      <trkpt lat="46.7819" lon="6.74536">
        <ele>466.8</ele>
        <time>2021-04-20T12:14:56.268Z</time>
      </trkpt>
      <trkpt lat="46.78194" lon="6.74535">
        <ele>466.41</ele>
        <time>2021-04-20T12:14:57.194Z</time>
      </trkpt>
      <trkpt lat="46.78201" lon="6.74532">
        <ele>465.57</ele>
        <time>2021-04-20T12:14:58.858Z</time>
      </trkpt>
      <trkpt lat="46.78218" lon="6.74524">
        <ele>465.32</ele>
        <time>2021-04-20T12:15:05.072Z</time>
      </trkpt>
      <trkpt lat="46.78223" lon="6.74523">
        <ele>464.71</ele>
        <time>2021-04-20T12:15:06.223Z</time>
      </trkpt>
      <trkpt lat="46.78233" lon="6.74523">
        <ele>464.69</ele>
        <time>2021-04-20T12:15:16.317Z</time>
      </trkpt>
      <trkpt lat="46.78246" lon="6.74526">
        <ele>464.53</ele>
        <time>2021-04-20T12:15:21.005Z</time>
      </trkpt>
      <trkpt lat="46.78254" lon="6.74527">
        <ele>464.33</ele>
        <time>2021-04-20T12:15:23.460Z</time>
      </trkpt>
      <trkpt lat="46.7826" lon="6.74527">
        <ele>464.2</ele>
        <time>2021-04-20T12:15:25.364Z</time>
      </trkpt>
      <trkpt lat="46.78266" lon="6.74525">
        <ele>463.9</ele>
        <time>2021-04-20T12:15:26.852Z</time>
      </trkpt>
      <trkpt lat="46.78272" lon="6.74522">
        <ele>463.46</ele>
        <time>2021-04-20T12:15:28.299Z</time>
      </trkpt>
      <trkpt lat="46.78279" lon="6.74518">
        <ele>463.38</ele>
        <time>2021-04-20T12:15:31.030Z</time>
      </trkpt>
      <trkpt lat="46.78284" lon="6.74515">
        <ele>462.97</ele>
        <time>2021-04-20T12:15:32.263Z</time>
      </trkpt>
      <trkpt lat="46.78289" lon="6.74511">
        <ele>462.73</ele>
        <time>2021-04-20T12:15:33.727Z</time>
      </trkpt>
      <trkpt lat="46.78294" lon="6.74506">
        <ele>462.69</ele>
        <time>2021-04-20T12:15:39.453Z</time>
      </trkpt>
      <trkpt lat="46.783" lon="6.74497">
        <ele>462.47</ele>
        <time>2021-04-20T12:15:42.064Z</time>
      </trkpt>
      <trkpt lat="46.78306" lon="6.7449">
        <ele>462.29</ele>
        <time>2021-04-20T12:15:44.451Z</time>
      </trkpt>
      <trkpt lat="46.78311" lon="6.74485">
        <ele>462</ele>
        <time>2021-04-20T12:15:45.928Z</time>
      </trkpt>
      <trkpt lat="46.78316" lon="6.74482">
        <ele>461.45</ele>
        <time>2021-04-20T12:15:47.161Z</time>
      </trkpt>
      <trkpt lat="46.78322" lon="6.74481">
        <ele>461.62</ele>
        <time>2021-04-20T12:15:55.627Z</time>
      </trkpt>
      <trkpt lat="46.78329" lon="6.7448">
        <ele>461.13</ele>
        <time>2021-04-20T12:15:57.232Z</time>
      </trkpt>
      <trkpt lat="46.78339" lon="6.74481">
        <ele>461</ele>
        <time>2021-04-20T12:16:00.764Z</time>
      </trkpt>
      <trkpt lat="46.78349" lon="6.74483">
        <ele>460.79</ele>
        <time>2021-04-20T12:16:03.998Z</time>
      </trkpt>
      <trkpt lat="46.78362" lon="6.74487">
        <ele>460.5</ele>
        <time>2021-04-20T12:16:08.205Z</time>
      </trkpt>
      <trkpt lat="46.78398" lon="6.74497">
        <ele>459.64</ele>
        <time>2021-04-20T12:16:19.593Z</time>
      </trkpt>
      <trkpt lat="46.78403" lon="6.74498">
        <ele>459.74</ele>
        <time>2021-04-20T12:16:26.007Z</time>
      </trkpt>
      <trkpt lat="46.78408" lon="6.745">
        <ele>459.66</ele>
        <time>2021-04-20T12:16:27.779Z</time>
      </trkpt>
      <trkpt lat="46.78414" lon="6.74498">
        <ele>459.54</ele>
        <time>2021-04-20T12:16:29.781Z</time>
      </trkpt>
      <trkpt lat="46.7842" lon="6.74496">
        <ele>459.57</ele>
        <time>2021-04-20T12:16:36.483Z</time>
      </trkpt>
      <trkpt lat="46.78425" lon="6.74493">
        <ele>459.5</ele>
        <time>2021-04-20T12:16:38.389Z</time>
      </trkpt>
      <trkpt lat="46.78435" lon="6.74487">
        <ele>459.15</ele>
        <time>2021-04-20T12:16:41.442Z</time>
      </trkpt>
      <trkpt lat="46.78442" lon="6.74481">
        <ele>458.81</ele>
        <time>2021-04-20T12:16:43.531Z</time>
      </trkpt>
      <trkpt lat="46.78458" lon="6.74469">
        <ele>458.35</ele>
        <time>2021-04-20T12:16:48.991Z</time>
      </trkpt>
      <trkpt lat="46.78472" lon="6.7446">
        <ele>458.46</ele>
        <time>2021-04-20T12:17:06.026Z</time>
      </trkpt>
      <trkpt lat="46.78496" lon="6.74445">
        <ele>458.04</ele>
        <time>2021-04-20T12:17:14.875Z</time>
      </trkpt>
      <trkpt lat="46.78497" lon="6.74444">
        <ele>457.59</ele>
        <time>2021-04-20T12:17:15.151Z</time>
      </trkpt>
      <trkpt lat="46.78497" lon="6.74445">
        <ele>457.59</ele>
        <time>2021-04-20T12:17:15.864Z</time>
      </trkpt>
      <trkpt lat="46.78519" lon="6.7443">
        <ele>457.14</ele>
        <time>2021-04-20T12:17:23.853Z</time>
      </trkpt>
      <trkpt lat="46.78523" lon="6.74428">
        <ele>456.89</ele>
        <time>2021-04-20T12:17:24.790Z</time>
      </trkpt>
      <trkpt lat="46.78531" lon="6.74424">
        <ele>456.66</ele>
        <time>2021-04-20T12:17:27.312Z</time>
      </trkpt>
      <trkpt lat="46.78536" lon="6.74422">
        <ele>456.3</ele>
        <time>2021-04-20T12:17:28.495Z</time>
      </trkpt>
      <trkpt lat="46.78541" lon="6.74421">
        <ele>456.06</ele>
        <time>2021-04-20T12:17:29.729Z</time>
      </trkpt>
      <trkpt lat="46.78545" lon="6.74422">
        <ele>455.86</ele>
        <time>2021-04-20T12:17:30.705Z</time>
      </trkpt>
      <trkpt lat="46.78549" lon="6.74423">
        <ele>455.66</ele>
        <time>2021-04-20T12:17:31.682Z</time>
      </trkpt>
      <trkpt lat="46.78555" lon="6.74425">
        <ele>455.41</ele>
        <time>2021-04-20T12:17:33.285Z</time>
      </trkpt>
      <trkpt lat="46.7857" lon="6.74436">
        <ele>454.96</ele>
        <time>2021-04-20T12:17:38.312Z</time>
      </trkpt>
      <trkpt lat="46.78574" lon="6.74439">
        <ele>454.87</ele>
        <time>2021-04-20T12:17:39.766Z</time>
      </trkpt>
      <trkpt lat="46.78578" lon="6.7444">
        <ele>454.76</ele>
        <time>2021-04-20T12:17:40.978Z</time>
      </trkpt>
      <trkpt lat="46.78583" lon="6.74439">
        <ele>453.36</ele>
        <time>2021-04-20T12:17:42.129Z</time>
      </trkpt>
      <trkpt lat="46.78622" lon="6.74426">
        <ele>453.36</ele>
        <time>2021-04-20T12:18:23.745Z</time>
      </trkpt>
      <trkpt lat="46.78644" lon="6.74419">
        <ele>452.84</ele>
        <time>2021-04-20T12:18:30.772Z</time>
      </trkpt>
      <trkpt lat="46.78659" lon="6.74414">
        <ele>452.42</ele>
        <time>2021-04-20T12:18:35.356Z</time>
      </trkpt>
      <trkpt lat="46.78704" lon="6.74395">
        <ele>451.16</ele>
        <time>2021-04-20T12:18:49.371Z</time>
      </trkpt>
      <trkpt lat="46.78718" lon="6.74389">
        <ele>450.66</ele>
        <time>2021-04-20T12:18:53.413Z</time>
      </trkpt>
      <trkpt lat="46.78722" lon="6.74388">
        <ele>450.56</ele>
        <time>2021-04-20T12:18:54.658Z</time>
      </trkpt>
      <trkpt lat="46.78733" lon="6.74385">
        <ele>450.26</ele>
        <time>2021-04-20T12:18:58.009Z</time>
      </trkpt>
      <trkpt lat="46.78747" lon="6.74383">
        <ele>450.01</ele>
        <time>2021-04-20T12:19:02.681Z</time>
      </trkpt>
      <trkpt lat="46.78775" lon="6.74379">
        <ele>449.62</ele>
        <time>2021-04-20T12:19:12.485Z</time>
      </trkpt>
      <trkpt lat="46.78794" lon="6.74377">
        <ele>449.25</ele>
        <time>2021-04-20T12:19:18.688Z</time>
      </trkpt>
      <trkpt lat="46.78823" lon="6.74372">
        <ele>448.65</ele>
        <time>2021-04-20T12:19:28.072Z</time>
      </trkpt>
      <trkpt lat="46.78887" lon="6.74362">
        <ele>447.59</ele>
        <time>2021-04-20T12:19:49.787Z</time>
      </trkpt>
      <trkpt lat="46.78917" lon="6.74358">
        <ele>446.17</ele>
        <time>2021-04-20T12:19:57.178Z</time>
      </trkpt>
      <trkpt lat="46.78958" lon="6.74352">
        <ele>446.38</ele>
        <time>2021-04-20T12:20:42.144Z</time>
      </trkpt>
      <trkpt lat="46.78966" lon="6.74351">
        <ele>446.17</ele>
        <time>2021-04-20T12:20:44.566Z</time>
      </trkpt>
      <trkpt lat="46.7897" lon="6.74348">
        <ele>446.03</ele>
        <time>2021-04-20T12:20:45.852Z</time>
      </trkpt>
      <trkpt lat="46.78974" lon="6.74346">
        <ele>445.98</ele>
        <time>2021-04-20T12:20:47.365Z</time>
      </trkpt>
      <trkpt lat="46.78979" lon="6.74342">
        <ele>445.94</ele>
        <time>2021-04-20T12:20:52.720Z</time>
      </trkpt>
      <trkpt lat="46.78983" lon="6.74337">
        <ele>445.7</ele>
        <time>2021-04-20T12:20:54.030Z</time>
      </trkpt>
      <trkpt lat="46.78989" lon="6.7433">
        <ele>445.6</ele>
        <time>2021-04-20T12:20:56.735Z</time>
      </trkpt>
      <trkpt lat="46.79002" lon="6.74312">
        <ele>445.47</ele>
        <time>2021-04-20T12:21:03.546Z</time>
      </trkpt>
      <trkpt lat="46.79016" lon="6.74294">
        <ele>445.29</ele>
        <time>2021-04-20T12:21:10.411Z</time>
      </trkpt>
      <trkpt lat="46.79045" lon="6.74255">
        <ele>444.88</ele>
        <time>2021-04-20T12:21:24.778Z</time>
      </trkpt>
      <trkpt lat="46.7909" lon="6.74299">
        <ele>444.03</ele>
        <time>2021-04-20T12:21:43.222Z</time>
      </trkpt>
      <trkpt lat="46.79106" lon="6.74278">
        <ele>443.45</ele>
        <time>2021-04-20T12:21:49.654Z</time>
      </trkpt>
      <trkpt lat="46.79117" lon="6.74264">
        <ele>442.99</ele>
        <time>2021-04-20T12:21:53.810Z</time>
      </trkpt>
      <trkpt lat="46.7914" lon="6.7423">
        <ele>441.92</ele>
        <time>2021-04-20T12:22:03.022Z</time>
      </trkpt>
      <trkpt lat="46.79167" lon="6.74193">
        <ele>441.19</ele>
        <time>2021-04-20T12:22:15.036Z</time>
      </trkpt>
      <trkpt lat="46.79211" lon="6.74135">
        <ele>440.31</ele>
        <time>2021-04-20T12:22:35.437Z</time>
      </trkpt>
      <trkpt lat="46.79243" lon="6.7409">
        <ele>439.75</ele>
        <time>2021-04-20T12:22:51.167Z</time>
      </trkpt>
      <trkpt lat="46.79265" lon="6.74058">
        <ele>439.06</ele>
        <time>2021-04-20T12:23:00.953Z</time>
      </trkpt>
      <trkpt lat="46.79291" lon="6.74023">
        <ele>438.67</ele>
        <time>2021-04-20T12:23:13.732Z</time>
      </trkpt>
      <trkpt lat="46.79305" lon="6.74002">
        <ele>438.38</ele>
        <time>2021-04-20T12:23:20.674Z</time>
      </trkpt>
      <trkpt lat="46.79321" lon="6.73982">
        <ele>437.96</ele>
        <time>2021-04-20T12:23:27.489Z</time>
      </trkpt>
      <trkpt lat="46.79345" lon="6.73947">
        <ele>437.84</ele>
        <time>2021-04-20T12:24:00.957Z</time>
      </trkpt>
      <trkpt lat="46.79368" lon="6.73916">
        <ele>437.74</ele>
        <time>2021-04-20T12:24:31.996Z</time>
      </trkpt>
      <trkpt lat="46.79336" lon="6.73844">
        <ele>437.75</ele>
        <time>2021-04-20T12:25:33.231Z</time>
      </trkpt>
      <trkpt lat="46.79323" lon="6.73817">
        <ele>437.83</ele>
        <time>2021-04-20T12:25:57.529Z</time>
      </trkpt>
      <trkpt lat="46.79315" lon="6.738">
        <ele>438.06</ele>
        <time>2021-04-20T12:26:14.797Z</time>
      </trkpt>
      <trkpt lat="46.79314" lon="6.73797">
        <ele>438.1</ele>
        <time>2021-04-20T12:26:17.628Z</time>
      </trkpt>
      <trkpt lat="46.79321" lon="6.73769">
        <ele>437.69</ele>
        <time>2021-04-20T12:26:24.221Z</time>
      </trkpt>
      <trkpt lat="46.79329" lon="6.73739">
        <ele>437.49</ele>
        <time>2021-04-20T12:26:32.397Z</time>
      </trkpt>
      <trkpt lat="46.79336" lon="6.73712">
        <ele>437.99</ele>
        <time>2021-04-20T12:26:59.162Z</time>
      </trkpt>
      <trkpt lat="46.79336" lon="6.73712">
        <ele>437.99</ele>
        <time>2021-04-20T12:26:59.162Z</time>
      </trkpt>
      <trkpt lat="46.79477" lon="6.73148">
        <ele>438.48</ele>
        <time>2021-04-20T12:34:11.528Z</time>
      </trkpt>
      <trkpt lat="46.79488" lon="6.73106">
        <ele>438.82</ele>
        <time>2021-04-20T12:34:47.160Z</time>
      </trkpt>
      <trkpt lat="46.79498" lon="6.73068">
        <ele>439.04</ele>
        <time>2021-04-20T12:35:18.415Z</time>
      </trkpt>
      <trkpt lat="46.7952" lon="6.72979">
        <ele>440.17</ele>
        <time>2021-04-20T12:36:38.623Z</time>
      </trkpt>
      <trkpt lat="46.79538" lon="6.72907">
        <ele>442.7</ele>
        <time>2021-04-20T12:38:12.975Z</time>
      </trkpt>
      <trkpt lat="46.79554" lon="6.72842">
        <ele>444.91</ele>
        <time>2021-04-20T12:39:37.195Z</time>
      </trkpt>
      <trkpt lat="46.79559" lon="6.72821">
        <ele>445.73</ele>
        <time>2021-04-20T12:40:05.604Z</time>
      </trkpt>
      <trkpt lat="46.79562" lon="6.72824">
        <ele>445.7</ele>
        <time>2021-04-20T12:40:06.968Z</time>
      </trkpt>
      <trkpt lat="46.79569" lon="6.7283">
        <ele>445.62</ele>
        <time>2021-04-20T12:40:09.947Z</time>
      </trkpt>
      <trkpt lat="46.79656" lon="6.72911">
        <ele>445.62</ele>
        <time>2021-04-20T12:41:57.278Z</time>
      </trkpt>
      <trkpt lat="46.79655" lon="6.72911">
        <ele>445.62</ele>
        <time>2021-04-20T12:41:58.318Z</time>
      </trkpt>
      <trkpt lat="46.79678" lon="6.72932">
        <ele>445.62</ele>
        <time>2021-04-20T12:42:26.535Z</time>
      </trkpt>
      <trkpt lat="46.79715" lon="6.72965">
        <ele>444.2</ele>
        <time>2021-04-20T12:42:38.731Z</time>
      </trkpt>
      <trkpt lat="46.79788" lon="6.73033">
        <ele>441.28</ele>
        <time>2021-04-20T12:43:02.849Z</time>
      </trkpt>
      <trkpt lat="46.79831" lon="6.73072">
        <ele>440.89</ele>
        <time>2021-04-20T12:43:21.976Z</time>
      </trkpt>
      <trkpt lat="46.79893" lon="6.7313">
        <ele>440.5</ele>
        <time>2021-04-20T12:44:32.820Z</time>
      </trkpt>
      <trkpt lat="46.79931" lon="6.73165">
        <ele>440.08</ele>
        <time>2021-04-20T12:44:49.422Z</time>
      </trkpt>
      <trkpt lat="46.79946" lon="6.73179">
        <ele>439.88</ele>
        <time>2021-04-20T12:44:55.838Z</time>
      </trkpt>
      <trkpt lat="46.79973" lon="6.73204">
        <ele>439.57</ele>
        <time>2021-04-20T12:45:07.598Z</time>
      </trkpt>
      <trkpt lat="46.80027" lon="6.73255">
        <ele>438.92</ele>
        <time>2021-04-20T12:45:31.123Z</time>
      </trkpt>
      <trkpt lat="46.80033" lon="6.73262">
        <ele>438.5</ele>
        <time>2021-04-20T12:45:32.888Z</time>
      </trkpt>
      <trkpt lat="46.80042" lon="6.73278">
        <ele>438.18</ele>
        <time>2021-04-20T12:45:37.338Z</time>
      </trkpt>
      <trkpt lat="46.80054" lon="6.73303">
        <ele>437.69</ele>
        <time>2021-04-20T12:45:43.836Z</time>
      </trkpt>
      <trkpt lat="46.8006" lon="6.73316">
        <ele>437.48</ele>
        <time>2021-04-20T12:45:47.324Z</time>
      </trkpt>
      <trkpt lat="46.80055" lon="6.73321">
        <ele>437.5</ele>
        <time>2021-04-20T12:45:53.825Z</time>
      </trkpt>
      <trkpt lat="46.80039" lon="6.73346">
        <ele>436</ele>
        <time>2021-04-20T12:45:58.821Z</time>
      </trkpt>
      <trkpt lat="46.80039" lon="6.73349">
        <ele>435.88</ele>
        <time>2021-04-20T12:45:59.279Z</time>
      </trkpt>
      <trkpt lat="46.80039" lon="6.73351">
        <ele>435.8</ele>
        <time>2021-04-20T12:45:59.584Z</time>
      </trkpt>
      <trkpt lat="46.80039" lon="6.73354">
        <ele>435.76</ele>
        <time>2021-04-20T12:46:00.253Z</time>
      </trkpt>
      <trkpt lat="46.80047" lon="6.73366">
        <ele>435.64</ele>
        <time>2021-04-20T12:46:04.428Z</time>
      </trkpt>
      <trkpt lat="46.80052" lon="6.73373">
        <ele>435.62</ele>
        <time>2021-04-20T12:46:11.327Z</time>
      </trkpt>
      <trkpt lat="46.80053" lon="6.73375">
        <ele>435.64</ele>
        <time>2021-04-20T12:46:13.305Z</time>
      </trkpt>
      <trkpt lat="46.80053" lon="6.73378">
        <ele>435.66</ele>
        <time>2021-04-20T12:46:15.650Z</time>
      </trkpt>
      <trkpt lat="46.80052" lon="6.73381">
        <ele>435.66</ele>
        <time>2021-04-20T12:46:18.027Z</time>
      </trkpt>
      <trkpt lat="46.8005" lon="6.73385">
        <ele>435.66</ele>
        <time>2021-04-20T12:46:21.554Z</time>
      </trkpt>
      <trkpt lat="46.8003" lon="6.73422">
        <ele>435.55</ele>
        <time>2021-04-20T12:46:53.462Z</time>
      </trkpt>
      <trkpt lat="46.8003" lon="6.73422">
        <ele>435.55</ele>
        <time>2021-04-20T12:46:53.462Z</time>
      </trkpt>
      <trkpt lat="46.80028" lon="6.73426">
        <ele>435.45</ele>
        <time>2021-04-20T12:46:54.449Z</time>
      </trkpt>
      <trkpt lat="46.80027" lon="6.73431">
        <ele>435.42</ele>
        <time>2021-04-20T12:46:55.783Z</time>
      </trkpt>
      <trkpt lat="46.80028" lon="6.73434">
        <ele>435.37</ele>
        <time>2021-04-20T12:46:56.506Z</time>
      </trkpt>
      <trkpt lat="46.80035" lon="6.73448">
        <ele>435.29</ele>
        <time>2021-04-20T12:47:07.697Z</time>
      </trkpt>
      <trkpt lat="46.80036" lon="6.73451">
        <ele>435.31</ele>
        <time>2021-04-20T12:47:10.280Z</time>
      </trkpt>
      <trkpt lat="46.80037" lon="6.73456">
        <ele>435.34</ele>
        <time>2021-04-20T12:47:14.300Z</time>
      </trkpt>
      <trkpt lat="46.80034" lon="6.73457">
        <ele>435.3</ele>
        <time>2021-04-20T12:47:15.384Z</time>
      </trkpt>
      <trkpt lat="46.80033" lon="6.73457">
        <ele>435.27</ele>
        <time>2021-04-20T12:47:15.673Z</time>
      </trkpt>
      <trkpt lat="46.80032" lon="6.7346">
        <ele>435.26</ele>
        <time>2021-04-20T12:47:17.900Z</time>
      </trkpt>
      <trkpt lat="46.80028" lon="6.73473">
        <ele>435.35</ele>
        <time>2021-04-20T12:47:28.987Z</time>
      </trkpt>
      <trkpt lat="46.80028" lon="6.73476">
        <ele>435.36</ele>
        <time>2021-04-20T12:47:31.223Z</time>
      </trkpt>
      <trkpt lat="46.80029" lon="6.73479">
        <ele>435.34</ele>
        <time>2021-04-20T12:47:32.074Z</time>
      </trkpt>
      <trkpt lat="46.8003" lon="6.73481">
        <ele>435.28</ele>
        <time>2021-04-20T12:47:32.539Z</time>
      </trkpt>
      <trkpt lat="46.80042" lon="6.73489">
        <ele>435.14</ele>
        <time>2021-04-20T12:47:37.332Z</time>
      </trkpt>
      <trkpt lat="46.80044" lon="6.73491">
        <ele>435.11</ele>
        <time>2021-04-20T12:47:38.193Z</time>
      </trkpt>
      <trkpt lat="46.80045" lon="6.73497">
        <ele>435.04</ele>
        <time>2021-04-20T12:47:39.618Z</time>
      </trkpt>
      <trkpt lat="46.80048" lon="6.73507">
        <ele>435.05</ele>
        <time>2021-04-20T12:47:47.490Z</time>
      </trkpt>
      <trkpt lat="46.80051" lon="6.73515">
        <ele>434.99</ele>
        <time>2021-04-20T12:47:49.789Z</time>
      </trkpt>
      <trkpt lat="46.80055" lon="6.73522">
        <ele>434.94</ele>
        <time>2021-04-20T12:47:52.138Z</time>
      </trkpt>
      <trkpt lat="46.80061" lon="6.73531">
        <ele>434.9</ele>
        <time>2021-04-20T12:48:00.490Z</time>
      </trkpt>
      <trkpt lat="46.80062" lon="6.73535">
        <ele>434.87</ele>
        <time>2021-04-20T12:48:01.554Z</time>
      </trkpt>
      <trkpt lat="46.80063" lon="6.73538">
        <ele>434.81</ele>
        <time>2021-04-20T12:48:02.242Z</time>
      </trkpt>
      <trkpt lat="46.80055" lon="6.7355">
        <ele>434.72</ele>
        <time>2021-04-20T12:48:06.566Z</time>
      </trkpt>
      <trkpt lat="46.80045" lon="6.73563">
        <ele>434.73</ele>
        <time>2021-04-20T12:48:20.588Z</time>
      </trkpt>
      <trkpt lat="46.80045" lon="6.73563">
        <ele>434.73</ele>
        <time>2021-04-20T12:48:20.588Z</time>
      </trkpt>
      <trkpt lat="46.80039" lon="6.73572">
        <ele>434.74</ele>
        <time>2021-04-20T12:48:29.631Z</time>
      </trkpt>
      <trkpt lat="46.80033" lon="6.73581">
        <ele>434.72</ele>
        <time>2021-04-20T12:48:38.270Z</time>
      </trkpt>
      <trkpt lat="46.80028" lon="6.7359">
        <ele>434.87</ele>
        <time>2021-04-20T12:48:48.253Z</time>
      </trkpt>
      <trkpt lat="46.80027" lon="6.73593">
        <ele>434.97</ele>
        <time>2021-04-20T12:48:52.221Z</time>
      </trkpt>
      <trkpt lat="46.80016" lon="6.7362">
        <ele>435.25</ele>
        <time>2021-04-20T12:49:17.626Z</time>
      </trkpt>
      <trkpt lat="46.80011" lon="6.73634">
        <ele>435.39</ele>
        <time>2021-04-20T12:49:30.385Z</time>
      </trkpt>
      <trkpt lat="46.80008" lon="6.73641">
        <ele>435.4</ele>
        <time>2021-04-20T12:49:36.363Z</time>
      </trkpt>
      <trkpt lat="46.80006" lon="6.73651">
        <ele>435.6</ele>
        <time>2021-04-20T12:49:46.347Z</time>
      </trkpt>
      <trkpt lat="46.80002" lon="6.73668">
        <ele>435.54</ele>
        <time>2021-04-20T12:49:58.259Z</time>
      </trkpt>
      <trkpt lat="46.79992" lon="6.73715">
        <ele>435.2</ele>
        <time>2021-04-20T12:50:10.588Z</time>
      </trkpt>
      <trkpt lat="46.80007" lon="6.73729">
        <ele>435.45</ele>
        <time>2021-04-20T12:50:31.840Z</time>
      </trkpt>
      <trkpt lat="46.80032" lon="6.7375">
        <ele>435.86</ele>
        <time>2021-04-20T12:51:06.334Z</time>
      </trkpt>
      <trkpt lat="46.80048" lon="6.73764">
        <ele>435.19</ele>
        <time>2021-04-20T12:51:11.416Z</time>
      </trkpt>
      <trkpt lat="46.8005" lon="6.73766">
        <ele>435.03</ele>
        <time>2021-04-20T12:51:11.925Z</time>
      </trkpt>
      <trkpt lat="46.8005" lon="6.73765">
        <ele>435.03</ele>
        <time>2021-04-20T12:51:12.638Z</time>
      </trkpt>
      <trkpt lat="46.80055" lon="6.73769">
        <ele>434.87</ele>
        <time>2021-04-20T12:51:14.322Z</time>
      </trkpt>
      <trkpt lat="46.80086" lon="6.7379">
        <ele>434.63</ele>
        <time>2021-04-20T12:51:46.417Z</time>
      </trkpt>
      <trkpt lat="46.80099" lon="6.73801">
        <ele>435.76</ele>
        <time>2021-04-20T12:52:19.155Z</time>
      </trkpt>
      <trkpt lat="46.80098" lon="6.73815">
        <ele>435.84</ele>
        <time>2021-04-20T12:52:30.004Z</time>
      </trkpt>
      <trkpt lat="46.80096" lon="6.73836">
        <ele>435.9</ele>
        <time>2021-04-20T12:52:45.697Z</time>
      </trkpt>
      <trkpt lat="46.80109" lon="6.73842">
        <ele>435.24</ele>
        <time>2021-04-20T12:52:49.004Z</time>
      </trkpt>
      <trkpt lat="46.80124" lon="6.7385">
        <ele>435</ele>
        <time>2021-04-20T12:52:54.488Z</time>
      </trkpt>
      <trkpt lat="46.80133" lon="6.73855">
        <ele>434.88</ele>
        <time>2021-04-20T12:52:57.904Z</time>
      </trkpt>
      <trkpt lat="46.80151" lon="6.73865">
        <ele>434.73</ele>
        <time>2021-04-20T12:53:05.173Z</time>
      </trkpt>
      <trkpt lat="46.8015" lon="6.73865">
        <ele>434.73</ele>
        <time>2021-04-20T12:53:06.214Z</time>
      </trkpt>
      <trkpt lat="46.80176" lon="6.73879">
        <ele>434.57</ele>
        <time>2021-04-20T12:53:32.698Z</time>
      </trkpt>
      <trkpt lat="46.80184" lon="6.73883">
        <ele>434.54</ele>
        <time>2021-04-20T12:53:41.041Z</time>
      </trkpt>
      <trkpt lat="46.80188" lon="6.73885">
        <ele>434.54</ele>
        <time>2021-04-20T12:53:45.440Z</time>
      </trkpt>
      <trkpt lat="46.80192" lon="6.73885">
        <ele>434.5</ele>
        <time>2021-04-20T12:53:46.905Z</time>
      </trkpt>
      <trkpt lat="46.80195" lon="6.73886">
        <ele>434.49</ele>
        <time>2021-04-20T12:53:49.955Z</time>
      </trkpt>
      <trkpt lat="46.80198" lon="6.73885">
        <ele>434.46</ele>
        <time>2021-04-20T12:53:51.086Z</time>
      </trkpt>
      <trkpt lat="46.80205" lon="6.73882">
        <ele>434.46</ele>
        <time>2021-04-20T12:53:58.675Z</time>
      </trkpt>
      <trkpt lat="46.8021" lon="6.73878">
        <ele>434.5</ele>
        <time>2021-04-20T12:54:05.013Z</time>
      </trkpt>
      <trkpt lat="46.80216" lon="6.73873">
        <ele>434.59</ele>
        <time>2021-04-20T12:54:13.173Z</time>
      </trkpt>
      <trkpt lat="46.8023" lon="6.73859">
        <ele>434.87</ele>
        <time>2021-04-20T12:54:33.966Z</time>
      </trkpt>
      <trkpt lat="46.8024" lon="6.7385">
        <ele>435.19</ele>
        <time>2021-04-20T12:54:50.249Z</time>
      </trkpt>
      <trkpt lat="46.80254" lon="6.73835">
        <ele>434.42</ele>
        <time>2021-04-20T12:54:54.616Z</time>
      </trkpt>
      <trkpt lat="46.80257" lon="6.73833">
        <ele>434.12</ele>
        <time>2021-04-20T12:54:55.369Z</time>
      </trkpt>
      <trkpt lat="46.8026" lon="6.73831">
        <ele>434.11</ele>
        <time>2021-04-20T12:54:58.647Z</time>
      </trkpt>
      <trkpt lat="46.80264" lon="6.73829">
        <ele>433.77</ele>
        <time>2021-04-20T12:54:59.612Z</time>
      </trkpt>
      <trkpt lat="46.80268" lon="6.73828">
        <ele>433.67</ele>
        <time>2021-04-20T12:55:00.856Z</time>
      </trkpt>
      <trkpt lat="46.80273" lon="6.73827">
        <ele>433.6</ele>
        <time>2021-04-20T12:55:02.615Z</time>
      </trkpt>
      <trkpt lat="46.80278" lon="6.73826">
        <ele>433.55</ele>
        <time>2021-04-20T12:55:04.466Z</time>
      </trkpt>
      <trkpt lat="46.80293" lon="6.73822">
        <ele>433.29</ele>
        <time>2021-04-20T12:55:09.574Z</time>
      </trkpt>
      <trkpt lat="46.80306" lon="6.7382">
        <ele>433.14</ele>
        <time>2021-04-20T12:55:14.271Z</time>
      </trkpt>
      <trkpt lat="46.80326" lon="6.73818">
        <ele>432.86</ele>
        <time>2021-04-20T12:55:21.248Z</time>
      </trkpt>
      <trkpt lat="46.80335" lon="6.73817">
        <ele>432.15</ele>
        <time>2021-04-20T12:55:23.307Z</time>
      </trkpt>
      <trkpt lat="46.80343" lon="6.73818">
        <ele>432.03</ele>
        <time>2021-04-20T12:55:26.068Z</time>
      </trkpt>
      <trkpt lat="46.80352" lon="6.73819">
        <ele>431.72</ele>
        <time>2021-04-20T12:55:28.566Z</time>
      </trkpt>
      <trkpt lat="46.80362" lon="6.73821">
        <ele>431.73</ele>
        <time>2021-04-20T12:55:39.163Z</time>
      </trkpt>
      <trkpt lat="46.80376" lon="6.73824">
        <ele>431.47</ele>
        <time>2021-04-20T12:55:43.828Z</time>
      </trkpt>
      <trkpt lat="46.80375" lon="6.73837">
        <ele>432.01</ele>
        <time>2021-04-20T12:56:01.296Z</time>
      </trkpt>
      <trkpt lat="46.80375" lon="6.73844">
        <ele>432.05</ele>
        <time>2021-04-20T12:56:06.694Z</time>
      </trkpt>
    </trkseg>
  </trk>
</gpx>